<?xml version="1.0" encoding="UTF-8" standalone="no" ?>
<gpx xmlns="http://www.topografix.com/GPX/1/1" xmlns:xsi="http://www.w3.org/2001/XMLSchema-instance" xsi:schemaLocation="http://www.topografix.com/GPX/1/1 http://www.topografix.com/GPX/1/1/gpx.xsd" version="1.1" creator="VisuGPX - https://www.visugpx.com">
  <metadata>
    <name>Comencau - Agnac</name>
    <desc><![CDATA[Réalisé le 18 juin 2013]]></desc>
  </metadata>
  <trk>
    <name><![CDATA[18 juin 2013 16:31:01]]></name>
    <cmt><![CDATA[18 juin 2013 16:31:01]]></cmt>
    <trkseg>
      <trkpt lat="44.35065" lon="2.45491">
        <ele>498.7</ele>
        <time>2013-06-18T14:31:03Z</time>
      </trkpt>
      <trkpt lat="44.3503" lon="2.45566">
        <ele>471</ele>
        <time>2013-06-18T14:31:04Z</time>
      </trkpt>
      <trkpt lat="44.35042" lon="2.45565">
        <ele>484</ele>
        <time>2013-06-18T14:31:09Z</time>
      </trkpt>
      <trkpt lat="44.3505" lon="2.45555">
        <ele>488</ele>
        <time>2013-06-18T14:31:55Z</time>
      </trkpt>
      <trkpt lat="44.35053" lon="2.45547">
        <ele>487</ele>
        <time>2013-06-18T14:32:02Z</time>
      </trkpt>
      <trkpt lat="44.3506" lon="2.45543">
        <ele>488</ele>
        <time>2013-06-18T14:32:12Z</time>
      </trkpt>
      <trkpt lat="44.35062" lon="2.45537">
        <ele>488</ele>
        <time>2013-06-18T14:32:15Z</time>
      </trkpt>
      <trkpt lat="44.35072" lon="2.45526">
        <ele>491</ele>
        <time>2013-06-18T14:32:35Z</time>
      </trkpt>
      <trkpt lat="44.35081" lon="2.45529">
        <ele>487</ele>
        <time>2013-06-18T14:32:49Z</time>
      </trkpt>
      <trkpt lat="44.35092" lon="2.4553">
        <ele>488</ele>
        <time>2013-06-18T14:33:01Z</time>
      </trkpt>
      <trkpt lat="44.35101" lon="2.45525">
        <ele>485</ele>
        <time>2013-06-18T14:33:11Z</time>
      </trkpt>
      <trkpt lat="44.3511" lon="2.45523">
        <ele>487</ele>
        <time>2013-06-18T14:33:20Z</time>
      </trkpt>
      <trkpt lat="44.3512" lon="2.45524">
        <ele>486</ele>
        <time>2013-06-18T14:33:34Z</time>
      </trkpt>
      <trkpt lat="44.3513" lon="2.45519">
        <ele>484</ele>
        <time>2013-06-18T14:33:41Z</time>
      </trkpt>
      <trkpt lat="44.3514" lon="2.45516">
        <ele>483</ele>
        <time>2013-06-18T14:33:53Z</time>
      </trkpt>
      <trkpt lat="44.35152" lon="2.45514">
        <ele>485</ele>
        <time>2013-06-18T14:34:05Z</time>
      </trkpt>
      <trkpt lat="44.35167" lon="2.45517">
        <ele>489</ele>
        <time>2013-06-18T14:34:31Z</time>
      </trkpt>
      <trkpt lat="44.35181" lon="2.45508">
        <ele>493</ele>
        <time>2013-06-18T14:34:55Z</time>
      </trkpt>
      <trkpt lat="44.35188" lon="2.45507">
        <ele>494</ele>
        <time>2013-06-18T14:35:14Z</time>
      </trkpt>
      <trkpt lat="44.35196" lon="2.45505">
        <ele>494</ele>
        <time>2013-06-18T14:35:32Z</time>
      </trkpt>
      <trkpt lat="44.35205" lon="2.45502">
        <ele>494</ele>
        <time>2013-06-18T14:35:39Z</time>
      </trkpt>
      <trkpt lat="44.35213" lon="2.45508">
        <ele>493</ele>
        <time>2013-06-18T14:35:48Z</time>
      </trkpt>
      <trkpt lat="44.35216" lon="2.45516">
        <ele>497</ele>
        <time>2013-06-18T14:36:04Z</time>
      </trkpt>
      <trkpt lat="44.35221" lon="2.45516">
        <ele>501</ele>
        <time>2013-06-18T14:36:10Z</time>
      </trkpt>
      <trkpt lat="44.35227" lon="2.45515">
        <ele>504</ele>
        <time>2013-06-18T14:36:30Z</time>
      </trkpt>
      <trkpt lat="44.3524" lon="2.45513">
        <ele>494</ele>
        <time>2013-06-18T14:36:58Z</time>
      </trkpt>
      <trkpt lat="44.35253" lon="2.45519">
        <ele>482</ele>
        <time>2013-06-18T14:37:27Z</time>
      </trkpt>
      <trkpt lat="44.35273" lon="2.45518">
        <ele>471</ele>
        <time>2013-06-18T14:37:48Z</time>
      </trkpt>
      <trkpt lat="44.35281" lon="2.45518">
        <ele>477</ele>
        <time>2013-06-18T14:38:07Z</time>
      </trkpt>
      <trkpt lat="44.35286" lon="2.4553">
        <ele>478</ele>
        <time>2013-06-18T14:38:27Z</time>
      </trkpt>
      <trkpt lat="44.35289" lon="2.45537">
        <ele>476</ele>
        <time>2013-06-18T14:38:41Z</time>
      </trkpt>
      <trkpt lat="44.35298" lon="2.45542">
        <ele>470</ele>
        <time>2013-06-18T14:38:54Z</time>
      </trkpt>
      <trkpt lat="44.35303" lon="2.45555">
        <ele>464</ele>
        <time>2013-06-18T14:39:08Z</time>
      </trkpt>
      <trkpt lat="44.35312" lon="2.45562">
        <ele>461</ele>
        <time>2013-06-18T14:39:19Z</time>
      </trkpt>
      <trkpt lat="44.35322" lon="2.45564">
        <ele>460</ele>
        <time>2013-06-18T14:39:30Z</time>
      </trkpt>
      <trkpt lat="44.35332" lon="2.45564">
        <ele>460</ele>
        <time>2013-06-18T14:39:35Z</time>
      </trkpt>
      <trkpt lat="44.35342" lon="2.45566">
        <ele>459</ele>
        <time>2013-06-18T14:39:41Z</time>
      </trkpt>
      <trkpt lat="44.35353" lon="2.45572">
        <ele>455</ele>
        <time>2013-06-18T14:39:55Z</time>
      </trkpt>
      <trkpt lat="44.35364" lon="2.45588">
        <ele>450</ele>
        <time>2013-06-18T14:40:09Z</time>
      </trkpt>
      <trkpt lat="44.35388" lon="2.45606">
        <ele>448</ele>
        <time>2013-06-18T14:40:32Z</time>
      </trkpt>
      <trkpt lat="44.35413" lon="2.45626">
        <ele>448</ele>
        <time>2013-06-18T14:40:56Z</time>
      </trkpt>
      <trkpt lat="44.35432" lon="2.45629">
        <ele>452</ele>
        <time>2013-06-18T14:41:36Z</time>
      </trkpt>
      <trkpt lat="44.35441" lon="2.45644">
        <ele>464</ele>
        <time>2013-06-18T14:41:54Z</time>
      </trkpt>
      <trkpt lat="44.35456" lon="2.4565">
        <ele>476</ele>
        <time>2013-06-18T14:42:15Z</time>
      </trkpt>
      <trkpt lat="44.35464" lon="2.45643">
        <ele>481</ele>
        <time>2013-06-18T14:42:29Z</time>
      </trkpt>
      <trkpt lat="44.35469" lon="2.45647">
        <ele>486</ele>
        <time>2013-06-18T14:43:08Z</time>
      </trkpt>
      <trkpt lat="44.3548" lon="2.45639">
        <ele>487</ele>
        <time>2013-06-18T14:43:25Z</time>
      </trkpt>
      <trkpt lat="44.35491" lon="2.45638">
        <ele>488</ele>
        <time>2013-06-18T14:43:31Z</time>
      </trkpt>
      <trkpt lat="44.35498" lon="2.4564">
        <ele>489</ele>
        <time>2013-06-18T14:43:51Z</time>
      </trkpt>
      <trkpt lat="44.35511" lon="2.45646">
        <ele>489</ele>
        <time>2013-06-18T14:44:02Z</time>
      </trkpt>
      <trkpt lat="44.35522" lon="2.45658">
        <ele>487</ele>
        <time>2013-06-18T14:44:21Z</time>
      </trkpt>
      <trkpt lat="44.35529" lon="2.4566">
        <ele>490</ele>
        <time>2013-06-18T14:47:01Z</time>
      </trkpt>
      <trkpt lat="44.35534" lon="2.45664">
        <ele>490</ele>
        <time>2013-06-18T14:47:19Z</time>
      </trkpt>
      <trkpt lat="44.35549" lon="2.4567">
        <ele>491</ele>
        <time>2013-06-18T14:48:19Z</time>
      </trkpt>
      <trkpt lat="44.35558" lon="2.45675">
        <ele>490</ele>
        <time>2013-06-18T14:48:27Z</time>
      </trkpt>
      <trkpt lat="44.35567" lon="2.45687">
        <ele>489</ele>
        <time>2013-06-18T14:48:33Z</time>
      </trkpt>
      <trkpt lat="44.35578" lon="2.4569">
        <ele>487</ele>
        <time>2013-06-18T14:48:44Z</time>
      </trkpt>
      <trkpt lat="44.35589" lon="2.45699">
        <ele>483</ele>
        <time>2013-06-18T14:48:58Z</time>
      </trkpt>
      <trkpt lat="44.35593" lon="2.45712">
        <ele>484</ele>
        <time>2013-06-18T14:49:08Z</time>
      </trkpt>
      <trkpt lat="44.35604" lon="2.45715">
        <ele>484</ele>
        <time>2013-06-18T14:49:19Z</time>
      </trkpt>
      <trkpt lat="44.35612" lon="2.45723">
        <ele>483</ele>
        <time>2013-06-18T14:49:27Z</time>
      </trkpt>
      <trkpt lat="44.3562" lon="2.45731">
        <ele>485</ele>
        <time>2013-06-18T14:49:39Z</time>
      </trkpt>
      <trkpt lat="44.35624" lon="2.45743">
        <ele>487</ele>
        <time>2013-06-18T14:49:47Z</time>
      </trkpt>
      <trkpt lat="44.3563" lon="2.45754">
        <ele>480</ele>
        <time>2013-06-18T14:50:01Z</time>
      </trkpt>
      <trkpt lat="44.35635" lon="2.45782">
        <ele>469</ele>
        <time>2013-06-18T14:50:30Z</time>
      </trkpt>
      <trkpt lat="44.35632" lon="2.4581">
        <ele>459</ele>
        <time>2013-06-18T14:50:52Z</time>
      </trkpt>
      <trkpt lat="44.35635" lon="2.45822">
        <ele>455</ele>
        <time>2013-06-18T14:51:03Z</time>
      </trkpt>
      <trkpt lat="44.35633" lon="2.45834">
        <ele>452</ele>
        <time>2013-06-18T14:51:12Z</time>
      </trkpt>
      <trkpt lat="44.35624" lon="2.45832">
        <ele>450</ele>
        <time>2013-06-18T14:51:23Z</time>
      </trkpt>
      <trkpt lat="44.35616" lon="2.45828">
        <ele>448</ele>
        <time>2013-06-18T14:51:32Z</time>
      </trkpt>
      <trkpt lat="44.35612" lon="2.45834">
        <ele>451</ele>
        <time>2013-06-18T14:51:56Z</time>
      </trkpt>
      <trkpt lat="44.35621" lon="2.45839">
        <ele>451</ele>
        <time>2013-06-18T14:52:51Z</time>
      </trkpt>
      <trkpt lat="44.35626" lon="2.45855">
        <ele>453</ele>
        <time>2013-06-18T14:53:15Z</time>
      </trkpt>
      <trkpt lat="44.35627" lon="2.45859">
        <ele>462</ele>
        <time>2013-06-18T14:55:36Z</time>
      </trkpt>
      <trkpt lat="44.35615" lon="2.45861">
        <ele>464</ele>
        <time>2013-06-18T14:56:07Z</time>
      </trkpt>
      <trkpt lat="44.35616" lon="2.45875">
        <ele>465</ele>
        <time>2013-06-18T14:56:21Z</time>
      </trkpt>
      <trkpt lat="44.35615" lon="2.4589">
        <ele>465</ele>
        <time>2013-06-18T14:56:29Z</time>
      </trkpt>
      <trkpt lat="44.35611" lon="2.45904">
        <ele>463</ele>
        <time>2013-06-18T14:56:38Z</time>
      </trkpt>
      <trkpt lat="44.35609" lon="2.45918">
        <ele>463</ele>
        <time>2013-06-18T14:56:47Z</time>
      </trkpt>
      <trkpt lat="44.35605" lon="2.45929">
        <ele>462</ele>
        <time>2013-06-18T14:56:55Z</time>
      </trkpt>
      <trkpt lat="44.35602" lon="2.45944">
        <ele>460</ele>
        <time>2013-06-18T14:57:02Z</time>
      </trkpt>
      <trkpt lat="44.35601" lon="2.45958">
        <ele>458</ele>
        <time>2013-06-18T14:57:10Z</time>
      </trkpt>
      <trkpt lat="44.35605" lon="2.45971">
        <ele>458</ele>
        <time>2013-06-18T14:57:17Z</time>
      </trkpt>
      <trkpt lat="44.35611" lon="2.45981">
        <ele>456</ele>
        <time>2013-06-18T14:57:23Z</time>
      </trkpt>
      <trkpt lat="44.35617" lon="2.45992">
        <ele>455</ele>
        <time>2013-06-18T14:57:32Z</time>
      </trkpt>
      <trkpt lat="44.35621" lon="2.46004">
        <ele>456</ele>
        <time>2013-06-18T14:57:38Z</time>
      </trkpt>
      <trkpt lat="44.35614" lon="2.46015">
        <ele>457</ele>
        <time>2013-06-18T14:57:45Z</time>
      </trkpt>
      <trkpt lat="44.356" lon="2.46025">
        <ele>466</ele>
        <time>2013-06-18T14:58:04Z</time>
      </trkpt>
      <trkpt lat="44.35591" lon="2.4603">
        <ele>465</ele>
        <time>2013-06-18T14:58:09Z</time>
      </trkpt>
      <trkpt lat="44.35584" lon="2.46039">
        <ele>463</ele>
        <time>2013-06-18T14:58:14Z</time>
      </trkpt>
      <trkpt lat="44.35571" lon="2.46048">
        <ele>461</ele>
        <time>2013-06-18T14:58:29Z</time>
      </trkpt>
      <trkpt lat="44.3556" lon="2.46054">
        <ele>460</ele>
        <time>2013-06-18T14:58:35Z</time>
      </trkpt>
      <trkpt lat="44.35551" lon="2.46059">
        <ele>459</ele>
        <time>2013-06-18T14:58:41Z</time>
      </trkpt>
      <trkpt lat="44.35541" lon="2.46063">
        <ele>460</ele>
        <time>2013-06-18T14:58:48Z</time>
      </trkpt>
      <trkpt lat="44.35532" lon="2.46066">
        <ele>460</ele>
        <time>2013-06-18T14:58:54Z</time>
      </trkpt>
      <trkpt lat="44.35523" lon="2.46071">
        <ele>460</ele>
        <time>2013-06-18T14:58:59Z</time>
      </trkpt>
      <trkpt lat="44.35512" lon="2.46076">
        <ele>460</ele>
        <time>2013-06-18T14:59:06Z</time>
      </trkpt>
      <trkpt lat="44.35503" lon="2.46078">
        <ele>461</ele>
        <time>2013-06-18T14:59:13Z</time>
      </trkpt>
      <trkpt lat="44.35493" lon="2.46081">
        <ele>461</ele>
        <time>2013-06-18T14:59:19Z</time>
      </trkpt>
      <trkpt lat="44.35485" lon="2.46087">
        <ele>462</ele>
        <time>2013-06-18T14:59:25Z</time>
      </trkpt>
      <trkpt lat="44.35476" lon="2.46091">
        <ele>462</ele>
        <time>2013-06-18T14:59:34Z</time>
      </trkpt>
      <trkpt lat="44.35468" lon="2.46097">
        <ele>461</ele>
        <time>2013-06-18T14:59:40Z</time>
      </trkpt>
      <trkpt lat="44.35453" lon="2.46107">
        <ele>460</ele>
        <time>2013-06-18T14:59:57Z</time>
      </trkpt>
      <trkpt lat="44.35442" lon="2.46109">
        <ele>461</ele>
        <time>2013-06-18T15:00:02Z</time>
      </trkpt>
      <trkpt lat="44.35431" lon="2.46106">
        <ele>460</ele>
        <time>2013-06-18T15:00:10Z</time>
      </trkpt>
      <trkpt lat="44.35421" lon="2.46112">
        <ele>461</ele>
        <time>2013-06-18T15:00:16Z</time>
      </trkpt>
      <trkpt lat="44.35413" lon="2.4612">
        <ele>462</ele>
        <time>2013-06-18T15:00:22Z</time>
      </trkpt>
      <trkpt lat="44.35404" lon="2.46127">
        <ele>462</ele>
        <time>2013-06-18T15:00:28Z</time>
      </trkpt>
      <trkpt lat="44.35395" lon="2.46132">
        <ele>462</ele>
        <time>2013-06-18T15:00:33Z</time>
      </trkpt>
      <trkpt lat="44.35385" lon="2.46136">
        <ele>463</ele>
        <time>2013-06-18T15:00:38Z</time>
      </trkpt>
      <trkpt lat="44.35376" lon="2.46137">
        <ele>463</ele>
        <time>2013-06-18T15:00:47Z</time>
      </trkpt>
      <trkpt lat="44.35365" lon="2.4614">
        <ele>463</ele>
        <time>2013-06-18T15:00:54Z</time>
      </trkpt>
      <trkpt lat="44.35355" lon="2.46145">
        <ele>463</ele>
        <time>2013-06-18T15:01:04Z</time>
      </trkpt>
      <trkpt lat="44.35344" lon="2.46154">
        <ele>463</ele>
        <time>2013-06-18T15:01:14Z</time>
      </trkpt>
      <trkpt lat="44.35335" lon="2.46164">
        <ele>463</ele>
        <time>2013-06-18T15:01:21Z</time>
      </trkpt>
      <trkpt lat="44.35325" lon="2.46168">
        <ele>462</ele>
        <time>2013-06-18T15:01:30Z</time>
      </trkpt>
      <trkpt lat="44.35317" lon="2.46174">
        <ele>462</ele>
        <time>2013-06-18T15:01:36Z</time>
      </trkpt>
      <trkpt lat="44.35308" lon="2.46179">
        <ele>461</ele>
        <time>2013-06-18T15:01:42Z</time>
      </trkpt>
      <trkpt lat="44.35298" lon="2.46182">
        <ele>461</ele>
        <time>2013-06-18T15:01:48Z</time>
      </trkpt>
      <trkpt lat="44.35288" lon="2.46185">
        <ele>460</ele>
        <time>2013-06-18T15:01:52Z</time>
      </trkpt>
      <trkpt lat="44.35279" lon="2.46187">
        <ele>459</ele>
        <time>2013-06-18T15:01:59Z</time>
      </trkpt>
      <trkpt lat="44.3527" lon="2.46194">
        <ele>458</ele>
        <time>2013-06-18T15:02:04Z</time>
      </trkpt>
      <trkpt lat="44.35257" lon="2.4619">
        <ele>459</ele>
        <time>2013-06-18T15:02:19Z</time>
      </trkpt>
      <trkpt lat="44.35243" lon="2.46187">
        <ele>459</ele>
        <time>2013-06-18T15:02:30Z</time>
      </trkpt>
      <trkpt lat="44.35232" lon="2.46191">
        <ele>459</ele>
        <time>2013-06-18T15:02:37Z</time>
      </trkpt>
      <trkpt lat="44.35223" lon="2.46194">
        <ele>460</ele>
        <time>2013-06-18T15:02:46Z</time>
      </trkpt>
      <trkpt lat="44.35213" lon="2.46196">
        <ele>461</ele>
        <time>2013-06-18T15:02:50Z</time>
      </trkpt>
      <trkpt lat="44.35202" lon="2.46202">
        <ele>461</ele>
        <time>2013-06-18T15:02:57Z</time>
      </trkpt>
      <trkpt lat="44.35192" lon="2.46208">
        <ele>462</ele>
        <time>2013-06-18T15:03:06Z</time>
      </trkpt>
      <trkpt lat="44.35182" lon="2.46212">
        <ele>461</ele>
        <time>2013-06-18T15:03:11Z</time>
      </trkpt>
      <trkpt lat="44.3517" lon="2.46215">
        <ele>459</ele>
        <time>2013-06-18T15:03:20Z</time>
      </trkpt>
      <trkpt lat="44.35161" lon="2.46218">
        <ele>459</ele>
        <time>2013-06-18T15:03:33Z</time>
      </trkpt>
      <trkpt lat="44.35154" lon="2.46227">
        <ele>459</ele>
        <time>2013-06-18T15:03:37Z</time>
      </trkpt>
      <trkpt lat="44.35144" lon="2.46233">
        <ele>460</ele>
        <time>2013-06-18T15:03:42Z</time>
      </trkpt>
      <trkpt lat="44.35131" lon="2.46241">
        <ele>467</ele>
        <time>2013-06-18T15:04:01Z</time>
      </trkpt>
      <trkpt lat="44.35123" lon="2.46246">
        <ele>469</ele>
        <time>2013-06-18T15:04:06Z</time>
      </trkpt>
      <trkpt lat="44.35114" lon="2.46252">
        <ele>471</ele>
        <time>2013-06-18T15:04:12Z</time>
      </trkpt>
      <trkpt lat="44.35104" lon="2.4626">
        <ele>472</ele>
        <time>2013-06-18T15:04:17Z</time>
      </trkpt>
      <trkpt lat="44.35095" lon="2.46264">
        <ele>473</ele>
        <time>2013-06-18T15:04:28Z</time>
      </trkpt>
      <trkpt lat="44.35082" lon="2.46265">
        <ele>472</ele>
        <time>2013-06-18T15:04:38Z</time>
      </trkpt>
      <trkpt lat="44.35065" lon="2.46273">
        <ele>484</ele>
        <time>2013-06-18T15:05:08Z</time>
      </trkpt>
      <trkpt lat="44.35056" lon="2.46285">
        <ele>488</ele>
        <time>2013-06-18T15:05:13Z</time>
      </trkpt>
      <trkpt lat="44.35046" lon="2.46297">
        <ele>494</ele>
        <time>2013-06-18T15:05:30Z</time>
      </trkpt>
      <trkpt lat="44.35035" lon="2.46305">
        <ele>494</ele>
        <time>2013-06-18T15:05:37Z</time>
      </trkpt>
      <trkpt lat="44.35025" lon="2.46313">
        <ele>492</ele>
        <time>2013-06-18T15:05:45Z</time>
      </trkpt>
      <trkpt lat="44.35017" lon="2.4632">
        <ele>491</ele>
        <time>2013-06-18T15:05:50Z</time>
      </trkpt>
      <trkpt lat="44.35005" lon="2.46331">
        <ele>490</ele>
        <time>2013-06-18T15:05:57Z</time>
      </trkpt>
      <trkpt lat="44.34993" lon="2.46348">
        <ele>488</ele>
        <time>2013-06-18T15:06:05Z</time>
      </trkpt>
      <trkpt lat="44.34982" lon="2.46358">
        <ele>485</ele>
        <time>2013-06-18T15:06:13Z</time>
      </trkpt>
      <trkpt lat="44.34973" lon="2.46367">
        <ele>483</ele>
        <time>2013-06-18T15:06:22Z</time>
      </trkpt>
      <trkpt lat="44.34962" lon="2.46376">
        <ele>483</ele>
        <time>2013-06-18T15:06:28Z</time>
      </trkpt>
      <trkpt lat="44.3495" lon="2.46381">
        <ele>482</ele>
        <time>2013-06-18T15:06:35Z</time>
      </trkpt>
      <trkpt lat="44.34941" lon="2.46389">
        <ele>480</ele>
        <time>2013-06-18T15:06:43Z</time>
      </trkpt>
      <trkpt lat="44.34931" lon="2.46396">
        <ele>479</ele>
        <time>2013-06-18T15:06:47Z</time>
      </trkpt>
      <trkpt lat="44.34924" lon="2.46404">
        <ele>478</ele>
        <time>2013-06-18T15:06:52Z</time>
      </trkpt>
      <trkpt lat="44.34916" lon="2.46413">
        <ele>477</ele>
        <time>2013-06-18T15:07:00Z</time>
      </trkpt>
      <trkpt lat="44.34904" lon="2.46418">
        <ele>476</ele>
        <time>2013-06-18T15:07:09Z</time>
      </trkpt>
      <trkpt lat="44.34896" lon="2.46424">
        <ele>478</ele>
        <time>2013-06-18T15:07:16Z</time>
      </trkpt>
      <trkpt lat="44.34886" lon="2.46424">
        <ele>479</ele>
        <time>2013-06-18T15:07:23Z</time>
      </trkpt>
      <trkpt lat="44.34877" lon="2.46425">
        <ele>479</ele>
        <time>2013-06-18T15:07:26Z</time>
      </trkpt>
      <trkpt lat="44.34866" lon="2.4643">
        <ele>479</ele>
        <time>2013-06-18T15:07:31Z</time>
      </trkpt>
      <trkpt lat="44.34857" lon="2.46433">
        <ele>477</ele>
        <time>2013-06-18T15:07:37Z</time>
      </trkpt>
      <trkpt lat="44.34848" lon="2.46438">
        <ele>475</ele>
        <time>2013-06-18T15:07:41Z</time>
      </trkpt>
      <trkpt lat="44.34838" lon="2.4644">
        <ele>474</ele>
        <time>2013-06-18T15:07:45Z</time>
      </trkpt>
      <trkpt lat="44.34828" lon="2.46441">
        <ele>473</ele>
        <time>2013-06-18T15:07:51Z</time>
      </trkpt>
      <trkpt lat="44.34818" lon="2.46446">
        <ele>470</ele>
        <time>2013-06-18T15:08:00Z</time>
      </trkpt>
      <trkpt lat="44.3481" lon="2.46452">
        <ele>468</ele>
        <time>2013-06-18T15:08:05Z</time>
      </trkpt>
      <trkpt lat="44.34803" lon="2.46459">
        <ele>466</ele>
        <time>2013-06-18T15:08:12Z</time>
      </trkpt>
      <trkpt lat="44.34796" lon="2.46468">
        <ele>464</ele>
        <time>2013-06-18T15:08:19Z</time>
      </trkpt>
      <trkpt lat="44.34787" lon="2.46464">
        <ele>463</ele>
        <time>2013-06-18T15:08:24Z</time>
      </trkpt>
      <trkpt lat="44.34778" lon="2.46458">
        <ele>461</ele>
        <time>2013-06-18T15:08:29Z</time>
      </trkpt>
      <trkpt lat="44.34768" lon="2.46454">
        <ele>463</ele>
        <time>2013-06-18T15:08:35Z</time>
      </trkpt>
      <trkpt lat="44.34758" lon="2.46454">
        <ele>464</ele>
        <time>2013-06-18T15:08:50Z</time>
      </trkpt>
      <trkpt lat="44.34748" lon="2.4646">
        <ele>463</ele>
        <time>2013-06-18T15:09:01Z</time>
      </trkpt>
      <trkpt lat="44.3474" lon="2.46465">
        <ele>461</ele>
        <time>2013-06-18T15:09:07Z</time>
      </trkpt>
      <trkpt lat="44.34731" lon="2.46469">
        <ele>461</ele>
        <time>2013-06-18T15:09:13Z</time>
      </trkpt>
      <trkpt lat="44.34722" lon="2.46473">
        <ele>460</ele>
        <time>2013-06-18T15:09:20Z</time>
      </trkpt>
      <trkpt lat="44.3471" lon="2.46476">
        <ele>463</ele>
        <time>2013-06-18T15:09:30Z</time>
      </trkpt>
      <trkpt lat="44.34696" lon="2.46479">
        <ele>476</ele>
        <time>2013-06-18T15:09:50Z</time>
      </trkpt>
      <trkpt lat="44.34686" lon="2.46491">
        <ele>479</ele>
        <time>2013-06-18T15:09:56Z</time>
      </trkpt>
      <trkpt lat="44.34686" lon="2.46498">
        <ele>487</ele>
        <time>2013-06-18T15:10:23Z</time>
      </trkpt>
      <trkpt lat="44.34677" lon="2.46503">
        <ele>485</ele>
        <time>2013-06-18T15:11:07Z</time>
      </trkpt>
      <trkpt lat="44.34668" lon="2.46504">
        <ele>478</ele>
        <time>2013-06-18T15:11:33Z</time>
      </trkpt>
      <trkpt lat="44.34671" lon="2.46515">
        <ele>480</ele>
        <time>2013-06-18T15:15:26Z</time>
      </trkpt>
      <trkpt lat="44.34676" lon="2.46512">
        <ele>479</ele>
        <time>2013-06-18T15:15:39Z</time>
      </trkpt>
      <trkpt lat="44.34685" lon="2.46509">
        <ele>479</ele>
        <time>2013-06-18T15:15:50Z</time>
      </trkpt>
      <trkpt lat="44.34681" lon="2.46506">
        <ele>471</ele>
        <time>2013-06-18T15:16:58Z</time>
      </trkpt>
      <trkpt lat="44.34671" lon="2.46504">
        <ele>471</ele>
        <time>2013-06-18T15:17:04Z</time>
      </trkpt>
      <trkpt lat="44.34665" lon="2.46503">
        <ele>468</ele>
        <time>2013-06-18T15:17:29Z</time>
      </trkpt>
      <trkpt lat="44.34649" lon="2.4653">
        <ele>487</ele>
        <time>2013-06-18T15:19:14Z</time>
      </trkpt>
      <trkpt lat="44.34643" lon="2.46561">
        <ele>489.3</ele>
        <time>2013-06-18T15:20:23Z</time>
      </trkpt>
      <trkpt lat="44.34621" lon="2.46663">
        <ele>509.4</ele>
        <time>2013-06-18T15:21:30Z</time>
      </trkpt>
      <trkpt lat="44.34614" lon="2.46722">
        <ele>467</ele>
        <time>2013-06-18T15:21:54Z</time>
      </trkpt>
      <trkpt lat="44.34603" lon="2.46759">
        <ele>467</ele>
        <time>2013-06-18T15:22:15Z</time>
      </trkpt>
      <trkpt lat="44.34595" lon="2.46788">
        <ele>467</ele>
        <time>2013-06-18T15:22:23Z</time>
      </trkpt>
      <trkpt lat="44.34587" lon="2.468">
        <ele>470</ele>
        <time>2013-06-18T15:22:42Z</time>
      </trkpt>
      <trkpt lat="44.34588" lon="2.46815">
        <ele>473</ele>
        <time>2013-06-18T15:22:53Z</time>
      </trkpt>
      <trkpt lat="44.34591" lon="2.46828">
        <ele>475</ele>
        <time>2013-06-18T15:23:01Z</time>
      </trkpt>
      <trkpt lat="44.34592" lon="2.46841">
        <ele>477</ele>
        <time>2013-06-18T15:23:07Z</time>
      </trkpt>
      <trkpt lat="44.34593" lon="2.46854">
        <ele>478</ele>
        <time>2013-06-18T15:23:12Z</time>
      </trkpt>
      <trkpt lat="44.34591" lon="2.46868">
        <ele>482</ele>
        <time>2013-06-18T15:23:24Z</time>
      </trkpt>
      <trkpt lat="44.34598" lon="2.4688">
        <ele>483</ele>
        <time>2013-06-18T15:23:37Z</time>
      </trkpt>
      <trkpt lat="44.34613" lon="2.46894">
        <ele>490</ele>
        <time>2013-06-18T15:24:03Z</time>
      </trkpt>
      <trkpt lat="44.34628" lon="2.46898">
        <ele>504</ele>
        <time>2013-06-18T15:24:12Z</time>
      </trkpt>
      <trkpt lat="44.34633" lon="2.46911">
        <ele>507</ele>
        <time>2013-06-18T15:24:15Z</time>
      </trkpt>
      <trkpt lat="44.34644" lon="2.46931">
        <ele>521</ele>
        <time>2013-06-18T15:24:45Z</time>
      </trkpt>
      <trkpt lat="44.34652" lon="2.46942">
        <ele>521</ele>
        <time>2013-06-18T15:24:49Z</time>
      </trkpt>
      <trkpt lat="44.34658" lon="2.46935">
        <ele>513</ele>
        <time>2013-06-18T15:25:29Z</time>
      </trkpt>
      <trkpt lat="44.34655" lon="2.46925">
        <ele>512</ele>
        <time>2013-06-18T15:26:27Z</time>
      </trkpt>
      <trkpt lat="44.34657" lon="2.46913">
        <ele>519</ele>
        <time>2013-06-18T15:26:53Z</time>
      </trkpt>
      <trkpt lat="44.34665" lon="2.46916">
        <ele>522</ele>
        <time>2013-06-18T15:27:27Z</time>
      </trkpt>
      <trkpt lat="44.34672" lon="2.46914">
        <ele>518</ele>
        <time>2013-06-18T15:27:47Z</time>
      </trkpt>
      <trkpt lat="44.34683" lon="2.46922">
        <ele>502</ele>
        <time>2013-06-18T15:28:31Z</time>
      </trkpt>
      <trkpt lat="44.34683" lon="2.46926">
        <ele>488</ele>
        <time>2013-06-18T15:29:20Z</time>
      </trkpt>
      <trkpt lat="44.34676" lon="2.46936">
        <ele>491</ele>
        <time>2013-06-18T15:29:46Z</time>
      </trkpt>
      <trkpt lat="44.34667" lon="2.46946">
        <ele>497</ele>
        <time>2013-06-18T15:30:01Z</time>
      </trkpt>
      <trkpt lat="44.34655" lon="2.46956">
        <ele>498</ele>
        <time>2013-06-18T15:30:03Z</time>
      </trkpt>
      <trkpt lat="44.34645" lon="2.46958">
        <ele>499</ele>
        <time>2013-06-18T15:30:07Z</time>
      </trkpt>
      <trkpt lat="44.34646" lon="2.46949">
        <ele>505</ele>
        <time>2013-06-18T15:30:46Z</time>
      </trkpt>
      <trkpt lat="44.34654" lon="2.46929">
        <ele>514</ele>
        <time>2013-06-18T15:31:32Z</time>
      </trkpt>
      <trkpt lat="44.34664" lon="2.4691">
        <ele>528</ele>
        <time>2013-06-18T15:31:45Z</time>
      </trkpt>
      <trkpt lat="44.34669" lon="2.46898">
        <ele>508</ele>
        <time>2013-06-18T15:32:56Z</time>
      </trkpt>
      <trkpt lat="44.34679" lon="2.46892">
        <ele>508</ele>
        <time>2013-06-18T15:33:02Z</time>
      </trkpt>
      <trkpt lat="44.34687" lon="2.46888">
        <ele>508</ele>
        <time>2013-06-18T15:33:14Z</time>
      </trkpt>
      <trkpt lat="44.34693" lon="2.46902">
        <ele>504</ele>
        <time>2013-06-18T15:33:29Z</time>
      </trkpt>
      <trkpt lat="44.34695" lon="2.46907">
        <ele>499</ele>
        <time>2013-06-18T15:33:40Z</time>
      </trkpt>
      <trkpt lat="44.34694" lon="2.46919">
        <ele>479</ele>
        <time>2013-06-18T15:34:32Z</time>
      </trkpt>
      <trkpt lat="44.34681" lon="2.46908">
        <ele>478</ele>
        <time>2013-06-18T15:34:40Z</time>
      </trkpt>
      <trkpt lat="44.34674" lon="2.46928">
        <ele>488</ele>
        <time>2013-06-18T15:35:36Z</time>
      </trkpt>
      <trkpt lat="44.34683" lon="2.46934">
        <ele>489</ele>
        <time>2013-06-18T15:35:51Z</time>
      </trkpt>
      <trkpt lat="44.34687" lon="2.4692">
        <ele>492</ele>
        <time>2013-06-18T15:36:00Z</time>
      </trkpt>
      <trkpt lat="44.34691" lon="2.46901">
        <ele>504</ele>
        <time>2013-06-18T15:36:19Z</time>
      </trkpt>
      <trkpt lat="44.34687" lon="2.46891">
        <ele>518</ele>
        <time>2013-06-18T15:37:26Z</time>
      </trkpt>
      <trkpt lat="44.34689" lon="2.46881">
        <ele>518</ele>
        <time>2013-06-18T15:39:19Z</time>
      </trkpt>
      <trkpt lat="44.34688" lon="2.46867">
        <ele>517</ele>
        <time>2013-06-18T15:39:48Z</time>
      </trkpt>
      <trkpt lat="44.34707" lon="2.46835">
        <ele>499</ele>
        <time>2013-06-18T15:40:12Z</time>
      </trkpt>
      <trkpt lat="44.34714" lon="2.46828">
        <ele>497</ele>
        <time>2013-06-18T15:40:19Z</time>
      </trkpt>
      <trkpt lat="44.34724" lon="2.46825">
        <ele>494</ele>
        <time>2013-06-18T15:40:26Z</time>
      </trkpt>
      <trkpt lat="44.34735" lon="2.4682">
        <ele>491</ele>
        <time>2013-06-18T15:40:36Z</time>
      </trkpt>
      <trkpt lat="44.34742" lon="2.46811">
        <ele>489</ele>
        <time>2013-06-18T15:40:41Z</time>
      </trkpt>
      <trkpt lat="44.3475" lon="2.46799">
        <ele>483</ele>
        <time>2013-06-18T15:40:50Z</time>
      </trkpt>
      <trkpt lat="44.34757" lon="2.4679">
        <ele>481</ele>
        <time>2013-06-18T15:40:56Z</time>
      </trkpt>
      <trkpt lat="44.34768" lon="2.46785">
        <ele>479</ele>
        <time>2013-06-18T15:41:11Z</time>
      </trkpt>
      <trkpt lat="44.34782" lon="2.46778">
        <ele>478</ele>
        <time>2013-06-18T15:41:19Z</time>
      </trkpt>
      <trkpt lat="44.34788" lon="2.46767">
        <ele>478</ele>
        <time>2013-06-18T15:41:27Z</time>
      </trkpt>
      <trkpt lat="44.34794" lon="2.46756">
        <ele>479</ele>
        <time>2013-06-18T15:41:32Z</time>
      </trkpt>
      <trkpt lat="44.34799" lon="2.46746">
        <ele>480</ele>
        <time>2013-06-18T15:41:37Z</time>
      </trkpt>
      <trkpt lat="44.34806" lon="2.46735">
        <ele>481</ele>
        <time>2013-06-18T15:41:42Z</time>
      </trkpt>
      <trkpt lat="44.34811" lon="2.46722">
        <ele>483</ele>
        <time>2013-06-18T15:41:49Z</time>
      </trkpt>
      <trkpt lat="44.34818" lon="2.46714">
        <ele>482</ele>
        <time>2013-06-18T15:41:56Z</time>
      </trkpt>
      <trkpt lat="44.34825" lon="2.46703">
        <ele>481</ele>
        <time>2013-06-18T15:42:03Z</time>
      </trkpt>
      <trkpt lat="44.34833" lon="2.46694">
        <ele>480</ele>
        <time>2013-06-18T15:42:09Z</time>
      </trkpt>
      <trkpt lat="44.34842" lon="2.46685">
        <ele>480</ele>
        <time>2013-06-18T15:42:15Z</time>
      </trkpt>
      <trkpt lat="44.34846" lon="2.4667">
        <ele>484</ele>
        <time>2013-06-18T15:42:20Z</time>
      </trkpt>
      <trkpt lat="44.34845" lon="2.46656">
        <ele>488</ele>
        <time>2013-06-18T15:42:24Z</time>
      </trkpt>
      <trkpt lat="44.34855" lon="2.46654">
        <ele>492</ele>
        <time>2013-06-18T15:42:27Z</time>
      </trkpt>
      <trkpt lat="44.34921" lon="2.46685">
        <ele>493</ele>
        <time>2013-06-18T15:43:18Z</time>
      </trkpt>
      <trkpt lat="44.35" lon="2.46704">
        <ele>595.6</ele>
        <time>2013-06-18T15:43:23Z</time>
      </trkpt>
      <trkpt lat="44.34979" lon="2.46692">
        <ele>489</ele>
        <time>2013-06-18T15:43:28Z</time>
      </trkpt>
      <trkpt lat="44.34968" lon="2.46686">
        <ele>488</ele>
        <time>2013-06-18T15:43:29Z</time>
      </trkpt>
      <trkpt lat="44.34956" lon="2.46683">
        <ele>483</ele>
        <time>2013-06-18T15:43:33Z</time>
      </trkpt>
      <trkpt lat="44.34961" lon="2.4667">
        <ele>477</ele>
        <time>2013-06-18T15:43:46Z</time>
      </trkpt>
      <trkpt lat="44.34964" lon="2.46656">
        <ele>476</ele>
        <time>2013-06-18T15:43:51Z</time>
      </trkpt>
      <trkpt lat="44.34967" lon="2.4664">
        <ele>477</ele>
        <time>2013-06-18T15:43:56Z</time>
      </trkpt>
      <trkpt lat="44.34971" lon="2.46627">
        <ele>481</ele>
        <time>2013-06-18T15:44:04Z</time>
      </trkpt>
      <trkpt lat="44.34977" lon="2.46616">
        <ele>484</ele>
        <time>2013-06-18T15:44:11Z</time>
      </trkpt>
      <trkpt lat="44.34985" lon="2.46609">
        <ele>485</ele>
        <time>2013-06-18T15:44:18Z</time>
      </trkpt>
      <trkpt lat="44.34995" lon="2.46605">
        <ele>485</ele>
        <time>2013-06-18T15:44:23Z</time>
      </trkpt>
      <trkpt lat="44.35001" lon="2.46595">
        <ele>484</ele>
        <time>2013-06-18T15:44:30Z</time>
      </trkpt>
      <trkpt lat="44.35008" lon="2.4658">
        <ele>483</ele>
        <time>2013-06-18T15:44:46Z</time>
      </trkpt>
      <trkpt lat="44.35019" lon="2.4657">
        <ele>481</ele>
        <time>2013-06-18T15:44:54Z</time>
      </trkpt>
      <trkpt lat="44.35029" lon="2.46564">
        <ele>482</ele>
        <time>2013-06-18T15:45:00Z</time>
      </trkpt>
      <trkpt lat="44.35038" lon="2.46557">
        <ele>485</ele>
        <time>2013-06-18T15:45:08Z</time>
      </trkpt>
      <trkpt lat="44.35049" lon="2.4655">
        <ele>486</ele>
        <time>2013-06-18T15:45:15Z</time>
      </trkpt>
      <trkpt lat="44.35057" lon="2.46541">
        <ele>488</ele>
        <time>2013-06-18T15:45:21Z</time>
      </trkpt>
      <trkpt lat="44.35066" lon="2.46535">
        <ele>489</ele>
        <time>2013-06-18T15:45:32Z</time>
      </trkpt>
      <trkpt lat="44.35076" lon="2.46534">
        <ele>488</ele>
        <time>2013-06-18T15:45:42Z</time>
      </trkpt>
      <trkpt lat="44.35087" lon="2.46537">
        <ele>487</ele>
        <time>2013-06-18T15:45:45Z</time>
      </trkpt>
      <trkpt lat="44.35098" lon="2.46538">
        <ele>486</ele>
        <time>2013-06-18T15:45:52Z</time>
      </trkpt>
      <trkpt lat="44.35107" lon="2.46537">
        <ele>484</ele>
        <time>2013-06-18T15:45:59Z</time>
      </trkpt>
      <trkpt lat="44.35119" lon="2.46533">
        <ele>483</ele>
        <time>2013-06-18T15:46:09Z</time>
      </trkpt>
      <trkpt lat="44.35128" lon="2.46531">
        <ele>483</ele>
        <time>2013-06-18T15:46:14Z</time>
      </trkpt>
      <trkpt lat="44.3514" lon="2.46525">
        <ele>484</ele>
        <time>2013-06-18T15:46:25Z</time>
      </trkpt>
      <trkpt lat="44.35149" lon="2.46524">
        <ele>485</ele>
        <time>2013-06-18T15:46:33Z</time>
      </trkpt>
      <trkpt lat="44.35155" lon="2.46513">
        <ele>486</ele>
        <time>2013-06-18T15:46:38Z</time>
      </trkpt>
      <trkpt lat="44.35159" lon="2.46499">
        <ele>489</ele>
        <time>2013-06-18T15:46:44Z</time>
      </trkpt>
      <trkpt lat="44.35161" lon="2.46486">
        <ele>491</ele>
        <time>2013-06-18T15:46:51Z</time>
      </trkpt>
      <trkpt lat="44.35167" lon="2.46475">
        <ele>491</ele>
        <time>2013-06-18T15:46:58Z</time>
      </trkpt>
      <trkpt lat="44.35175" lon="2.46466">
        <ele>492</ele>
        <time>2013-06-18T15:47:05Z</time>
      </trkpt>
      <trkpt lat="44.35182" lon="2.46457">
        <ele>493</ele>
        <time>2013-06-18T15:47:11Z</time>
      </trkpt>
      <trkpt lat="44.3519" lon="2.46447">
        <ele>493</ele>
        <time>2013-06-18T15:47:16Z</time>
      </trkpt>
      <trkpt lat="44.35198" lon="2.46437">
        <ele>493</ele>
        <time>2013-06-18T15:47:20Z</time>
      </trkpt>
      <trkpt lat="44.35205" lon="2.46428">
        <ele>494</ele>
        <time>2013-06-18T15:47:24Z</time>
      </trkpt>
      <trkpt lat="44.35214" lon="2.4642">
        <ele>496</ele>
        <time>2013-06-18T15:47:28Z</time>
      </trkpt>
      <trkpt lat="44.35224" lon="2.4641">
        <ele>498</ele>
        <time>2013-06-18T15:47:32Z</time>
      </trkpt>
      <trkpt lat="44.35232" lon="2.46404">
        <ele>499</ele>
        <time>2013-06-18T15:47:35Z</time>
      </trkpt>
      <trkpt lat="44.35515" lon="2.46363">
        <ele>605.6</ele>
        <time>2013-06-18T15:48:41Z</time>
      </trkpt>
      <trkpt lat="44.35561" lon="2.46339">
        <ele>601.1</ele>
        <time>2013-06-18T15:49:03Z</time>
      </trkpt>
      <trkpt lat="44.35582" lon="2.46313">
        <ele>488</ele>
        <time>2013-06-18T15:49:30Z</time>
      </trkpt>
      <trkpt lat="44.3562" lon="2.46318">
        <ele>485</ele>
        <time>2013-06-18T15:49:49Z</time>
      </trkpt>
      <trkpt lat="44.35618" lon="2.46321">
        <ele>502</ele>
        <time>2013-06-18T15:50:22Z</time>
      </trkpt>
      <trkpt lat="44.35534" lon="2.46363">
        <ele>576</ele>
        <time>2013-06-18T15:50:52Z</time>
      </trkpt>
      <trkpt lat="44.35525" lon="2.46376">
        <ele>581</ele>
        <time>2013-06-18T15:50:55Z</time>
      </trkpt>
      <trkpt lat="44.35518" lon="2.46387">
        <ele>584</ele>
        <time>2013-06-18T15:50:57Z</time>
      </trkpt>
      <trkpt lat="44.3551" lon="2.464">
        <ele>589</ele>
        <time>2013-06-18T15:50:59Z</time>
      </trkpt>
      <trkpt lat="44.35502" lon="2.46413">
        <ele>592</ele>
        <time>2013-06-18T15:51:01Z</time>
      </trkpt>
      <trkpt lat="44.35493" lon="2.46426">
        <ele>595</ele>
        <time>2013-06-18T15:51:03Z</time>
      </trkpt>
      <trkpt lat="44.35485" lon="2.46438">
        <ele>597</ele>
        <time>2013-06-18T15:51:05Z</time>
      </trkpt>
      <trkpt lat="44.35476" lon="2.4645">
        <ele>599</ele>
        <time>2013-06-18T15:51:07Z</time>
      </trkpt>
      <trkpt lat="44.35469" lon="2.46459">
        <ele>601</ele>
        <time>2013-06-18T15:51:09Z</time>
      </trkpt>
      <trkpt lat="44.35461" lon="2.46471">
        <ele>602</ele>
        <time>2013-06-18T15:51:11Z</time>
      </trkpt>
      <trkpt lat="44.35453" lon="2.46483">
        <ele>604</ele>
        <time>2013-06-18T15:51:13Z</time>
      </trkpt>
      <trkpt lat="44.35445" lon="2.46494">
        <ele>605</ele>
        <time>2013-06-18T15:51:15Z</time>
      </trkpt>
      <trkpt lat="44.35438" lon="2.46503">
        <ele>607</ele>
        <time>2013-06-18T15:51:17Z</time>
      </trkpt>
      <trkpt lat="44.35429" lon="2.46513">
        <ele>608</ele>
        <time>2013-06-18T15:51:19Z</time>
      </trkpt>
      <trkpt lat="44.35418" lon="2.46526">
        <ele>609</ele>
        <time>2013-06-18T15:51:21Z</time>
      </trkpt>
      <trkpt lat="44.35407" lon="2.46541">
        <ele>609</ele>
        <time>2013-06-18T15:51:23Z</time>
      </trkpt>
      <trkpt lat="44.35397" lon="2.46553">
        <ele>609</ele>
        <time>2013-06-18T15:51:25Z</time>
      </trkpt>
      <trkpt lat="44.35386" lon="2.46564">
        <ele>609</ele>
        <time>2013-06-18T15:51:27Z</time>
      </trkpt>
      <trkpt lat="44.35375" lon="2.46575">
        <ele>610</ele>
        <time>2013-06-18T15:51:29Z</time>
      </trkpt>
      <trkpt lat="44.35365" lon="2.46586">
        <ele>611</ele>
        <time>2013-06-18T15:51:31Z</time>
      </trkpt>
      <trkpt lat="44.35355" lon="2.46598">
        <ele>611</ele>
        <time>2013-06-18T15:51:33Z</time>
      </trkpt>
      <trkpt lat="44.35343" lon="2.4661">
        <ele>612</ele>
        <time>2013-06-18T15:51:35Z</time>
      </trkpt>
      <trkpt lat="44.35333" lon="2.46624">
        <ele>613</ele>
        <time>2013-06-18T15:51:37Z</time>
      </trkpt>
      <trkpt lat="44.35325" lon="2.46639">
        <ele>614</ele>
        <time>2013-06-18T15:51:39Z</time>
      </trkpt>
      <trkpt lat="44.35318" lon="2.46654">
        <ele>615</ele>
        <time>2013-06-18T15:51:41Z</time>
      </trkpt>
      <trkpt lat="44.35312" lon="2.46671">
        <ele>615</ele>
        <time>2013-06-18T15:51:43Z</time>
      </trkpt>
      <trkpt lat="44.35305" lon="2.46689">
        <ele>616</ele>
        <time>2013-06-18T15:51:45Z</time>
      </trkpt>
      <trkpt lat="44.35298" lon="2.46709">
        <ele>617</ele>
        <time>2013-06-18T15:51:47Z</time>
      </trkpt>
      <trkpt lat="44.35292" lon="2.46729">
        <ele>618</ele>
        <time>2013-06-18T15:51:49Z</time>
      </trkpt>
      <trkpt lat="44.35286" lon="2.4675">
        <ele>619</ele>
        <time>2013-06-18T15:51:51Z</time>
      </trkpt>
      <trkpt lat="44.3528" lon="2.46768">
        <ele>619</ele>
        <time>2013-06-18T15:51:53Z</time>
      </trkpt>
      <trkpt lat="44.35275" lon="2.46784">
        <ele>620</ele>
        <time>2013-06-18T15:51:55Z</time>
      </trkpt>
      <trkpt lat="44.3527" lon="2.46798">
        <ele>621</ele>
        <time>2013-06-18T15:51:57Z</time>
      </trkpt>
      <trkpt lat="44.35265" lon="2.46811">
        <ele>621</ele>
        <time>2013-06-18T15:51:59Z</time>
      </trkpt>
      <trkpt lat="44.35261" lon="2.46823">
        <ele>621</ele>
        <time>2013-06-18T15:52:01Z</time>
      </trkpt>
      <trkpt lat="44.35256" lon="2.46835">
        <ele>622</ele>
        <time>2013-06-18T15:52:03Z</time>
      </trkpt>
      <trkpt lat="44.35252" lon="2.46848">
        <ele>622</ele>
        <time>2013-06-18T15:52:05Z</time>
      </trkpt>
      <trkpt lat="44.35246" lon="2.46864">
        <ele>621</ele>
        <time>2013-06-18T15:52:08Z</time>
      </trkpt>
      <trkpt lat="44.3524" lon="2.46875">
        <ele>621</ele>
        <time>2013-06-18T15:52:11Z</time>
      </trkpt>
      <trkpt lat="44.35233" lon="2.46886">
        <ele>621</ele>
        <time>2013-06-18T15:52:18Z</time>
      </trkpt>
      <trkpt lat="44.3523" lon="2.46891">
        <ele>622</ele>
        <time>2013-06-18T15:52:21Z</time>
      </trkpt>
      <trkpt lat="44.35226" lon="2.46896">
        <ele>622</ele>
        <time>2013-06-18T15:52:24Z</time>
      </trkpt>
      <trkpt lat="44.35221" lon="2.469">
        <ele>623</ele>
        <time>2013-06-18T15:52:28Z</time>
      </trkpt>
      <trkpt lat="44.35216" lon="2.46905">
        <ele>624</ele>
        <time>2013-06-18T15:52:32Z</time>
      </trkpt>
      <trkpt lat="44.3521" lon="2.46916">
        <ele>625</ele>
        <time>2013-06-18T15:52:39Z</time>
      </trkpt>
      <trkpt lat="44.35206" lon="2.46921">
        <ele>626</ele>
        <time>2013-06-18T15:52:43Z</time>
      </trkpt>
      <trkpt lat="44.35202" lon="2.46925">
        <ele>626</ele>
        <time>2013-06-18T15:52:46Z</time>
      </trkpt>
      <trkpt lat="44.35198" lon="2.46929">
        <ele>627</ele>
        <time>2013-06-18T15:52:49Z</time>
      </trkpt>
      <trkpt lat="44.35194" lon="2.46933">
        <ele>627</ele>
        <time>2013-06-18T15:52:52Z</time>
      </trkpt>
      <trkpt lat="44.35188" lon="2.46939">
        <ele>627</ele>
        <time>2013-06-18T15:52:57Z</time>
      </trkpt>
      <trkpt lat="44.35183" lon="2.46945">
        <ele>628</ele>
        <time>2013-06-18T15:53:02Z</time>
      </trkpt>
      <trkpt lat="44.35174" lon="2.46955">
        <ele>629</ele>
        <time>2013-06-18T15:53:14Z</time>
      </trkpt>
      <trkpt lat="44.35165" lon="2.46965">
        <ele>630</ele>
        <time>2013-06-18T15:53:25Z</time>
      </trkpt>
      <trkpt lat="44.35156" lon="2.46975">
        <ele>632</ele>
        <time>2013-06-18T15:53:37Z</time>
      </trkpt>
      <trkpt lat="44.35148" lon="2.46984">
        <ele>630</ele>
        <time>2013-06-18T15:53:47Z</time>
      </trkpt>
      <trkpt lat="44.35144" lon="2.46989">
        <ele>630</ele>
        <time>2013-06-18T15:53:51Z</time>
      </trkpt>
      <trkpt lat="44.35139" lon="2.46997">
        <ele>630</ele>
        <time>2013-06-18T15:54:07Z</time>
      </trkpt>
      <trkpt lat="44.35137" lon="2.47002">
        <ele>632</ele>
        <time>2013-06-18T15:55:12Z</time>
      </trkpt>
      <trkpt lat="44.35127" lon="2.47008">
        <ele>634</ele>
        <time>2013-06-18T15:55:59Z</time>
      </trkpt>
      <trkpt lat="44.35122" lon="2.47014">
        <ele>634</ele>
        <time>2013-06-18T15:56:02Z</time>
      </trkpt>
      <trkpt lat="44.35118" lon="2.47018">
        <ele>633</ele>
        <time>2013-06-18T15:56:06Z</time>
      </trkpt>
      <trkpt lat="44.35114" lon="2.47023">
        <ele>633</ele>
        <time>2013-06-18T15:56:10Z</time>
      </trkpt>
      <trkpt lat="44.35111" lon="2.47028">
        <ele>633</ele>
        <time>2013-06-18T15:56:13Z</time>
      </trkpt>
      <trkpt lat="44.35108" lon="2.47033">
        <ele>633</ele>
        <time>2013-06-18T15:56:18Z</time>
      </trkpt>
      <trkpt lat="44.35102" lon="2.47038">
        <ele>634</ele>
        <time>2013-06-18T15:56:24Z</time>
      </trkpt>
      <trkpt lat="44.35098" lon="2.47042">
        <ele>633</ele>
        <time>2013-06-18T15:56:28Z</time>
      </trkpt>
      <trkpt lat="44.35095" lon="2.47047">
        <ele>634</ele>
        <time>2013-06-18T15:56:31Z</time>
      </trkpt>
      <trkpt lat="44.35091" lon="2.47052">
        <ele>634</ele>
        <time>2013-06-18T15:56:36Z</time>
      </trkpt>
      <trkpt lat="44.35087" lon="2.47057">
        <ele>634</ele>
        <time>2013-06-18T15:56:40Z</time>
      </trkpt>
      <trkpt lat="44.35082" lon="2.47062">
        <ele>634</ele>
        <time>2013-06-18T15:56:45Z</time>
      </trkpt>
      <trkpt lat="44.35078" lon="2.47069">
        <ele>635</ele>
        <time>2013-06-18T15:56:50Z</time>
      </trkpt>
      <trkpt lat="44.35075" lon="2.47075">
        <ele>635</ele>
        <time>2013-06-18T15:56:53Z</time>
      </trkpt>
      <trkpt lat="44.35072" lon="2.47081">
        <ele>635</ele>
        <time>2013-06-18T15:56:57Z</time>
      </trkpt>
      <trkpt lat="44.35069" lon="2.47087">
        <ele>636</ele>
        <time>2013-06-18T15:57:01Z</time>
      </trkpt>
      <trkpt lat="44.35065" lon="2.47093">
        <ele>636</ele>
        <time>2013-06-18T15:57:05Z</time>
      </trkpt>
      <trkpt lat="44.35062" lon="2.47099">
        <ele>637</ele>
        <time>2013-06-18T15:57:09Z</time>
      </trkpt>
      <trkpt lat="44.35058" lon="2.47105">
        <ele>637</ele>
        <time>2013-06-18T15:57:13Z</time>
      </trkpt>
      <trkpt lat="44.35055" lon="2.4711">
        <ele>638</ele>
        <time>2013-06-18T15:57:16Z</time>
      </trkpt>
      <trkpt lat="44.35051" lon="2.47117">
        <ele>638</ele>
        <time>2013-06-18T15:57:20Z</time>
      </trkpt>
      <trkpt lat="44.35048" lon="2.47123">
        <ele>639</ele>
        <time>2013-06-18T15:57:24Z</time>
      </trkpt>
      <trkpt lat="44.35045" lon="2.47129">
        <ele>638</ele>
        <time>2013-06-18T15:57:28Z</time>
      </trkpt>
      <trkpt lat="44.35041" lon="2.47135">
        <ele>637</ele>
        <time>2013-06-18T15:57:31Z</time>
      </trkpt>
      <trkpt lat="44.35037" lon="2.47145">
        <ele>636</ele>
        <time>2013-06-18T15:57:39Z</time>
      </trkpt>
      <trkpt lat="44.35035" lon="2.47151">
        <ele>635</ele>
        <time>2013-06-18T15:57:43Z</time>
      </trkpt>
      <trkpt lat="44.35032" lon="2.47157">
        <ele>635</ele>
        <time>2013-06-18T15:57:47Z</time>
      </trkpt>
      <trkpt lat="44.35028" lon="2.47162">
        <ele>633</ele>
        <time>2013-06-18T15:57:51Z</time>
      </trkpt>
      <trkpt lat="44.35025" lon="2.47168">
        <ele>633</ele>
        <time>2013-06-18T15:57:55Z</time>
      </trkpt>
      <trkpt lat="44.35023" lon="2.47173">
        <ele>633</ele>
        <time>2013-06-18T15:57:59Z</time>
      </trkpt>
      <trkpt lat="44.3502" lon="2.4718">
        <ele>634</ele>
        <time>2013-06-18T15:58:03Z</time>
      </trkpt>
      <trkpt lat="44.35016" lon="2.47188">
        <ele>633</ele>
        <time>2013-06-18T15:58:08Z</time>
      </trkpt>
      <trkpt lat="44.35013" lon="2.47193">
        <ele>633</ele>
        <time>2013-06-18T15:58:12Z</time>
      </trkpt>
      <trkpt lat="44.35008" lon="2.47205">
        <ele>634</ele>
        <time>2013-06-18T15:58:19Z</time>
      </trkpt>
      <trkpt lat="44.35003" lon="2.47217">
        <ele>633</ele>
        <time>2013-06-18T15:58:25Z</time>
      </trkpt>
      <trkpt lat="44.35001" lon="2.47223">
        <ele>633</ele>
        <time>2013-06-18T15:58:28Z</time>
      </trkpt>
      <trkpt lat="44.34998" lon="2.47228">
        <ele>633</ele>
        <time>2013-06-18T15:58:31Z</time>
      </trkpt>
      <trkpt lat="44.34995" lon="2.47235">
        <ele>633</ele>
        <time>2013-06-18T15:58:35Z</time>
      </trkpt>
      <trkpt lat="44.34993" lon="2.47241">
        <ele>632</ele>
        <time>2013-06-18T15:58:39Z</time>
      </trkpt>
      <trkpt lat="44.3499" lon="2.47248">
        <ele>632</ele>
        <time>2013-06-18T15:58:43Z</time>
      </trkpt>
      <trkpt lat="44.34987" lon="2.47256">
        <ele>633</ele>
        <time>2013-06-18T15:58:48Z</time>
      </trkpt>
      <trkpt lat="44.34985" lon="2.47262">
        <ele>632</ele>
        <time>2013-06-18T15:58:52Z</time>
      </trkpt>
      <trkpt lat="44.34983" lon="2.47269">
        <ele>631</ele>
        <time>2013-06-18T15:58:56Z</time>
      </trkpt>
      <trkpt lat="44.34982" lon="2.47275">
        <ele>631</ele>
        <time>2013-06-18T15:59:00Z</time>
      </trkpt>
      <trkpt lat="44.3498" lon="2.47282">
        <ele>631</ele>
        <time>2013-06-18T15:59:04Z</time>
      </trkpt>
      <trkpt lat="44.3498" lon="2.47296">
        <ele>632</ele>
        <time>2013-06-18T15:59:13Z</time>
      </trkpt>
      <trkpt lat="44.34979" lon="2.47303">
        <ele>631</ele>
        <time>2013-06-18T15:59:16Z</time>
      </trkpt>
      <trkpt lat="44.34978" lon="2.47311">
        <ele>629</ele>
        <time>2013-06-18T15:59:20Z</time>
      </trkpt>
      <trkpt lat="44.34978" lon="2.47318">
        <ele>628</ele>
        <time>2013-06-18T15:59:24Z</time>
      </trkpt>
      <trkpt lat="44.34976" lon="2.4733">
        <ele>630</ele>
        <time>2013-06-18T15:59:31Z</time>
      </trkpt>
      <trkpt lat="44.34976" lon="2.47337">
        <ele>630</ele>
        <time>2013-06-18T15:59:34Z</time>
      </trkpt>
      <trkpt lat="44.34975" lon="2.47347">
        <ele>630</ele>
        <time>2013-06-18T15:59:40Z</time>
      </trkpt>
      <trkpt lat="44.34974" lon="2.4736">
        <ele>630</ele>
        <time>2013-06-18T15:59:47Z</time>
      </trkpt>
      <trkpt lat="44.34973" lon="2.47366">
        <ele>631</ele>
        <time>2013-06-18T15:59:50Z</time>
      </trkpt>
      <trkpt lat="44.34972" lon="2.47377">
        <ele>631</ele>
        <time>2013-06-18T15:59:57Z</time>
      </trkpt>
      <trkpt lat="44.34971" lon="2.47385">
        <ele>630</ele>
        <time>2013-06-18T16:00:01Z</time>
      </trkpt>
      <trkpt lat="44.34971" lon="2.47391">
        <ele>629</ele>
        <time>2013-06-18T16:00:04Z</time>
      </trkpt>
      <trkpt lat="44.3497" lon="2.47399">
        <ele>629</ele>
        <time>2013-06-18T16:00:08Z</time>
      </trkpt>
      <trkpt lat="44.3497" lon="2.47407">
        <ele>630</ele>
        <time>2013-06-18T16:00:12Z</time>
      </trkpt>
      <trkpt lat="44.3497" lon="2.47413">
        <ele>630</ele>
        <time>2013-06-18T16:00:15Z</time>
      </trkpt>
      <trkpt lat="44.34971" lon="2.47421">
        <ele>631</ele>
        <time>2013-06-18T16:00:19Z</time>
      </trkpt>
      <trkpt lat="44.34971" lon="2.47427">
        <ele>630</ele>
        <time>2013-06-18T16:00:23Z</time>
      </trkpt>
      <trkpt lat="44.34971" lon="2.47436">
        <ele>629</ele>
        <time>2013-06-18T16:00:28Z</time>
      </trkpt>
      <trkpt lat="44.34971" lon="2.47442">
        <ele>629</ele>
        <time>2013-06-18T16:00:31Z</time>
      </trkpt>
      <trkpt lat="44.34971" lon="2.47449">
        <ele>630</ele>
        <time>2013-06-18T16:00:35Z</time>
      </trkpt>
      <trkpt lat="44.34971" lon="2.47456">
        <ele>630</ele>
        <time>2013-06-18T16:00:41Z</time>
      </trkpt>
      <trkpt lat="44.34972" lon="2.47469">
        <ele>630</ele>
        <time>2013-06-18T16:00:48Z</time>
      </trkpt>
      <trkpt lat="44.34972" lon="2.47482">
        <ele>631</ele>
        <time>2013-06-18T16:00:55Z</time>
      </trkpt>
      <trkpt lat="44.34974" lon="2.475">
        <ele>633</ele>
        <time>2013-06-18T16:01:13Z</time>
      </trkpt>
      <trkpt lat="44.34974" lon="2.47506">
        <ele>633</ele>
        <time>2013-06-18T16:01:16Z</time>
      </trkpt>
      <trkpt lat="44.34974" lon="2.47514">
        <ele>632</ele>
        <time>2013-06-18T16:01:20Z</time>
      </trkpt>
      <trkpt lat="44.34975" lon="2.4753">
        <ele>632</ele>
        <time>2013-06-18T16:01:43Z</time>
      </trkpt>
      <trkpt lat="44.34975" lon="2.47539">
        <ele>631</ele>
        <time>2013-06-18T16:01:48Z</time>
      </trkpt>
      <trkpt lat="44.34975" lon="2.47547">
        <ele>631</ele>
        <time>2013-06-18T16:01:53Z</time>
      </trkpt>
      <trkpt lat="44.34974" lon="2.47554">
        <ele>631</ele>
        <time>2013-06-18T16:01:57Z</time>
      </trkpt>
      <trkpt lat="44.34974" lon="2.47562">
        <ele>631</ele>
        <time>2013-06-18T16:02:01Z</time>
      </trkpt>
      <trkpt lat="44.34974" lon="2.47569">
        <ele>631</ele>
        <time>2013-06-18T16:02:05Z</time>
      </trkpt>
      <trkpt lat="44.34975" lon="2.47577">
        <ele>631</ele>
        <time>2013-06-18T16:02:10Z</time>
      </trkpt>
      <trkpt lat="44.34975" lon="2.47587">
        <ele>632</ele>
        <time>2013-06-18T16:02:16Z</time>
      </trkpt>
      <trkpt lat="44.34975" lon="2.47593">
        <ele>633</ele>
        <time>2013-06-18T16:02:20Z</time>
      </trkpt>
      <trkpt lat="44.34974" lon="2.47601">
        <ele>633</ele>
        <time>2013-06-18T16:02:24Z</time>
      </trkpt>
      <trkpt lat="44.34974" lon="2.47608">
        <ele>634</ele>
        <time>2013-06-18T16:02:28Z</time>
      </trkpt>
      <trkpt lat="44.34973" lon="2.47615">
        <ele>635</ele>
        <time>2013-06-18T16:02:34Z</time>
      </trkpt>
      <trkpt lat="44.34972" lon="2.47621">
        <ele>636</ele>
        <time>2013-06-18T16:02:38Z</time>
      </trkpt>
      <trkpt lat="44.34971" lon="2.47629">
        <ele>635</ele>
        <time>2013-06-18T16:02:43Z</time>
      </trkpt>
      <trkpt lat="44.34971" lon="2.47637">
        <ele>635</ele>
        <time>2013-06-18T16:02:49Z</time>
      </trkpt>
      <trkpt lat="44.34971" lon="2.47645">
        <ele>635</ele>
        <time>2013-06-18T16:02:53Z</time>
      </trkpt>
      <trkpt lat="44.34971" lon="2.47653">
        <ele>635</ele>
        <time>2013-06-18T16:02:58Z</time>
      </trkpt>
      <trkpt lat="44.34971" lon="2.47659">
        <ele>636</ele>
        <time>2013-06-18T16:03:02Z</time>
      </trkpt>
      <trkpt lat="44.34971" lon="2.47666">
        <ele>637</ele>
        <time>2013-06-18T16:03:06Z</time>
      </trkpt>
      <trkpt lat="44.3497" lon="2.47673">
        <ele>637</ele>
        <time>2013-06-18T16:03:10Z</time>
      </trkpt>
      <trkpt lat="44.34969" lon="2.47683">
        <ele>637</ele>
        <time>2013-06-18T16:03:15Z</time>
      </trkpt>
      <trkpt lat="44.34968" lon="2.47691">
        <ele>638</ele>
        <time>2013-06-18T16:03:19Z</time>
      </trkpt>
      <trkpt lat="44.34968" lon="2.47698">
        <ele>639</ele>
        <time>2013-06-18T16:03:23Z</time>
      </trkpt>
      <trkpt lat="44.34967" lon="2.4771">
        <ele>639</ele>
        <time>2013-06-18T16:03:29Z</time>
      </trkpt>
      <trkpt lat="44.34968" lon="2.47717">
        <ele>639</ele>
        <time>2013-06-18T16:03:33Z</time>
      </trkpt>
      <trkpt lat="44.34966" lon="2.47728">
        <ele>641</ele>
        <time>2013-06-18T16:03:40Z</time>
      </trkpt>
      <trkpt lat="44.34965" lon="2.47742">
        <ele>641</ele>
        <time>2013-06-18T16:03:48Z</time>
      </trkpt>
      <trkpt lat="44.34964" lon="2.47751">
        <ele>641</ele>
        <time>2013-06-18T16:03:55Z</time>
      </trkpt>
      <trkpt lat="44.34963" lon="2.47764">
        <ele>641</ele>
        <time>2013-06-18T16:04:02Z</time>
      </trkpt>
      <trkpt lat="44.34963" lon="2.47775">
        <ele>640</ele>
        <time>2013-06-18T16:04:09Z</time>
      </trkpt>
      <trkpt lat="44.3496" lon="2.47788">
        <ele>640</ele>
        <time>2013-06-18T16:04:18Z</time>
      </trkpt>
      <trkpt lat="44.34959" lon="2.47796">
        <ele>641</ele>
        <time>2013-06-18T16:04:23Z</time>
      </trkpt>
      <trkpt lat="44.34957" lon="2.47803">
        <ele>640</ele>
        <time>2013-06-18T16:04:27Z</time>
      </trkpt>
      <trkpt lat="44.34956" lon="2.47813">
        <ele>641</ele>
        <time>2013-06-18T16:04:33Z</time>
      </trkpt>
      <trkpt lat="44.34953" lon="2.47823">
        <ele>642</ele>
        <time>2013-06-18T16:04:41Z</time>
      </trkpt>
      <trkpt lat="44.34951" lon="2.47836">
        <ele>642</ele>
        <time>2013-06-18T16:04:48Z</time>
      </trkpt>
      <trkpt lat="44.34949" lon="2.47849">
        <ele>642</ele>
        <time>2013-06-18T16:04:55Z</time>
      </trkpt>
      <trkpt lat="44.3495" lon="2.47854">
        <ele>645</ele>
        <time>2013-06-18T16:05:11Z</time>
      </trkpt>
      <trkpt lat="44.34954" lon="2.47855">
        <ele>646</ele>
        <time>2013-06-18T16:05:22Z</time>
      </trkpt>
      <trkpt lat="44.34952" lon="2.47864">
        <ele>647</ele>
        <time>2013-06-18T16:05:42Z</time>
      </trkpt>
      <trkpt lat="44.34952" lon="2.47873">
        <ele>647</ele>
        <time>2013-06-18T16:05:48Z</time>
      </trkpt>
      <trkpt lat="44.34951" lon="2.47888">
        <ele>648</ele>
        <time>2013-06-18T16:05:58Z</time>
      </trkpt>
      <trkpt lat="44.34952" lon="2.47902">
        <ele>650</ele>
        <time>2013-06-18T16:06:06Z</time>
      </trkpt>
      <trkpt lat="44.34956" lon="2.47914">
        <ele>651</ele>
        <time>2013-06-18T16:06:16Z</time>
      </trkpt>
      <trkpt lat="44.34957" lon="2.47928">
        <ele>650</ele>
        <time>2013-06-18T16:06:26Z</time>
      </trkpt>
      <trkpt lat="44.3496" lon="2.47941">
        <ele>651</ele>
        <time>2013-06-18T16:06:34Z</time>
      </trkpt>
      <trkpt lat="44.34964" lon="2.47953">
        <ele>650</ele>
        <time>2013-06-18T16:06:39Z</time>
      </trkpt>
      <trkpt lat="44.34968" lon="2.47965">
        <ele>651</ele>
        <time>2013-06-18T16:06:45Z</time>
      </trkpt>
      <trkpt lat="44.34969" lon="2.47979">
        <ele>651</ele>
        <time>2013-06-18T16:06:54Z</time>
      </trkpt>
      <trkpt lat="44.34965" lon="2.47991">
        <ele>651</ele>
        <time>2013-06-18T16:07:02Z</time>
      </trkpt>
      <trkpt lat="44.34958" lon="2.47988">
        <ele>650</ele>
        <time>2013-06-18T16:07:20Z</time>
      </trkpt>
      <trkpt lat="44.34952" lon="2.47975">
        <ele>649</ele>
        <time>2013-06-18T16:07:24Z</time>
      </trkpt>
      <trkpt lat="44.34945" lon="2.47966">
        <ele>651</ele>
        <time>2013-06-18T16:07:27Z</time>
      </trkpt>
      <trkpt lat="44.34938" lon="2.47957">
        <ele>650</ele>
        <time>2013-06-18T16:07:32Z</time>
      </trkpt>
      <trkpt lat="44.34929" lon="2.47953">
        <ele>648</ele>
        <time>2013-06-18T16:07:37Z</time>
      </trkpt>
      <trkpt lat="44.3492" lon="2.47948">
        <ele>646</ele>
        <time>2013-06-18T16:07:46Z</time>
      </trkpt>
      <trkpt lat="44.34908" lon="2.47953">
        <ele>644</ele>
        <time>2013-06-18T16:08:02Z</time>
      </trkpt>
      <trkpt lat="44.34899" lon="2.47958">
        <ele>644</ele>
        <time>2013-06-18T16:08:07Z</time>
      </trkpt>
      <trkpt lat="44.34889" lon="2.47962">
        <ele>643</ele>
        <time>2013-06-18T16:08:16Z</time>
      </trkpt>
      <trkpt lat="44.3488" lon="2.47965">
        <ele>644</ele>
        <time>2013-06-18T16:08:26Z</time>
      </trkpt>
      <trkpt lat="44.34875" lon="2.4796">
        <ele>644</ele>
        <time>2013-06-18T16:09:03Z</time>
      </trkpt>
      <trkpt lat="44.34867" lon="2.47966">
        <ele>643</ele>
        <time>2013-06-18T16:09:20Z</time>
      </trkpt>
      <trkpt lat="44.34859" lon="2.47976">
        <ele>645</ele>
        <time>2013-06-18T16:09:35Z</time>
      </trkpt>
      <trkpt lat="44.3485" lon="2.47976">
        <ele>648</ele>
        <time>2013-06-18T16:09:49Z</time>
      </trkpt>
      <trkpt lat="44.34838" lon="2.47977">
        <ele>649</ele>
        <time>2013-06-18T16:10:00Z</time>
      </trkpt>
      <trkpt lat="44.34827" lon="2.47982">
        <ele>648</ele>
        <time>2013-06-18T16:10:08Z</time>
      </trkpt>
      <trkpt lat="44.34817" lon="2.47987">
        <ele>649</ele>
        <time>2013-06-18T16:10:15Z</time>
      </trkpt>
      <trkpt lat="44.34808" lon="2.47989">
        <ele>649</ele>
        <time>2013-06-18T16:10:21Z</time>
      </trkpt>
      <trkpt lat="44.34799" lon="2.47993">
        <ele>647</ele>
        <time>2013-06-18T16:10:29Z</time>
      </trkpt>
      <trkpt lat="44.34789" lon="2.47994">
        <ele>647</ele>
        <time>2013-06-18T16:10:37Z</time>
      </trkpt>
      <trkpt lat="44.34778" lon="2.47996">
        <ele>646</ele>
        <time>2013-06-18T16:10:44Z</time>
      </trkpt>
      <trkpt lat="44.34769" lon="2.48003">
        <ele>646</ele>
        <time>2013-06-18T16:10:52Z</time>
      </trkpt>
      <trkpt lat="44.3476" lon="2.48007">
        <ele>647</ele>
        <time>2013-06-18T16:11:01Z</time>
      </trkpt>
      <trkpt lat="44.34749" lon="2.48007">
        <ele>646</ele>
        <time>2013-06-18T16:11:08Z</time>
      </trkpt>
      <trkpt lat="44.34738" lon="2.48011">
        <ele>644</ele>
        <time>2013-06-18T16:11:18Z</time>
      </trkpt>
      <trkpt lat="44.34729" lon="2.48012">
        <ele>644</ele>
        <time>2013-06-18T16:11:28Z</time>
      </trkpt>
      <trkpt lat="44.34717" lon="2.48011">
        <ele>643</ele>
        <time>2013-06-18T16:11:37Z</time>
      </trkpt>
      <trkpt lat="44.34708" lon="2.48013">
        <ele>641</ele>
        <time>2013-06-18T16:11:43Z</time>
      </trkpt>
      <trkpt lat="44.34697" lon="2.48012">
        <ele>641</ele>
        <time>2013-06-18T16:11:54Z</time>
      </trkpt>
      <trkpt lat="44.34687" lon="2.48017">
        <ele>643</ele>
        <time>2013-06-18T16:12:01Z</time>
      </trkpt>
      <trkpt lat="44.34678" lon="2.4802">
        <ele>645</ele>
        <time>2013-06-18T16:12:08Z</time>
      </trkpt>
      <trkpt lat="44.34669" lon="2.48023">
        <ele>647</ele>
        <time>2013-06-18T16:12:14Z</time>
      </trkpt>
      <trkpt lat="44.34659" lon="2.48027">
        <ele>649</ele>
        <time>2013-06-18T16:12:20Z</time>
      </trkpt>
      <trkpt lat="44.3465" lon="2.48029">
        <ele>652</ele>
        <time>2013-06-18T16:12:27Z</time>
      </trkpt>
      <trkpt lat="44.3464" lon="2.48031">
        <ele>653</ele>
        <time>2013-06-18T16:12:33Z</time>
      </trkpt>
      <trkpt lat="44.34631" lon="2.48033">
        <ele>654</ele>
        <time>2013-06-18T16:12:40Z</time>
      </trkpt>
      <trkpt lat="44.34622" lon="2.48034">
        <ele>653</ele>
        <time>2013-06-18T16:12:49Z</time>
      </trkpt>
      <trkpt lat="44.34613" lon="2.48031">
        <ele>653</ele>
        <time>2013-06-18T16:12:57Z</time>
      </trkpt>
      <trkpt lat="44.34602" lon="2.48034">
        <ele>653</ele>
        <time>2013-06-18T16:13:04Z</time>
      </trkpt>
      <trkpt lat="44.34593" lon="2.48033">
        <ele>654</ele>
        <time>2013-06-18T16:13:12Z</time>
      </trkpt>
      <trkpt lat="44.34583" lon="2.48032">
        <ele>654</ele>
        <time>2013-06-18T16:13:21Z</time>
      </trkpt>
      <trkpt lat="44.34574" lon="2.48031">
        <ele>656</ele>
        <time>2013-06-18T16:13:28Z</time>
      </trkpt>
      <trkpt lat="44.34564" lon="2.48034">
        <ele>657</ele>
        <time>2013-06-18T16:13:36Z</time>
      </trkpt>
      <trkpt lat="44.34555" lon="2.48037">
        <ele>656</ele>
        <time>2013-06-18T16:13:42Z</time>
      </trkpt>
      <trkpt lat="44.34546" lon="2.48042">
        <ele>656</ele>
        <time>2013-06-18T16:13:49Z</time>
      </trkpt>
      <trkpt lat="44.34537" lon="2.48044">
        <ele>655</ele>
        <time>2013-06-18T16:13:57Z</time>
      </trkpt>
      <trkpt lat="44.34527" lon="2.48047">
        <ele>655</ele>
        <time>2013-06-18T16:14:06Z</time>
      </trkpt>
      <trkpt lat="44.34519" lon="2.48053">
        <ele>653</ele>
        <time>2013-06-18T16:14:13Z</time>
      </trkpt>
      <trkpt lat="44.3451" lon="2.48058">
        <ele>652</ele>
        <time>2013-06-18T16:14:20Z</time>
      </trkpt>
      <trkpt lat="44.34503" lon="2.48068">
        <ele>655</ele>
        <time>2013-06-18T16:14:28Z</time>
      </trkpt>
      <trkpt lat="44.34495" lon="2.48075">
        <ele>655</ele>
        <time>2013-06-18T16:14:37Z</time>
      </trkpt>
      <trkpt lat="44.34488" lon="2.48085">
        <ele>655</ele>
        <time>2013-06-18T16:14:45Z</time>
      </trkpt>
      <trkpt lat="44.34481" lon="2.48094">
        <ele>655</ele>
        <time>2013-06-18T16:14:52Z</time>
      </trkpt>
      <trkpt lat="44.34473" lon="2.48101">
        <ele>654</ele>
        <time>2013-06-18T16:14:59Z</time>
      </trkpt>
      <trkpt lat="44.34467" lon="2.4811">
        <ele>654</ele>
        <time>2013-06-18T16:15:06Z</time>
      </trkpt>
      <trkpt lat="44.3446" lon="2.48121">
        <ele>655</ele>
        <time>2013-06-18T16:15:14Z</time>
      </trkpt>
      <trkpt lat="44.34454" lon="2.4813">
        <ele>657</ele>
        <time>2013-06-18T16:15:23Z</time>
      </trkpt>
      <trkpt lat="44.34446" lon="2.48139">
        <ele>657</ele>
        <time>2013-06-18T16:15:32Z</time>
      </trkpt>
      <trkpt lat="44.3444" lon="2.48149">
        <ele>655</ele>
        <time>2013-06-18T16:15:42Z</time>
      </trkpt>
      <trkpt lat="44.34433" lon="2.48159">
        <ele>655</ele>
        <time>2013-06-18T16:15:49Z</time>
      </trkpt>
      <trkpt lat="44.34427" lon="2.48169">
        <ele>654</ele>
        <time>2013-06-18T16:15:56Z</time>
      </trkpt>
      <trkpt lat="44.3442" lon="2.48178">
        <ele>654</ele>
        <time>2013-06-18T16:16:03Z</time>
      </trkpt>
      <trkpt lat="44.34413" lon="2.48188">
        <ele>656</ele>
        <time>2013-06-18T16:16:11Z</time>
      </trkpt>
      <trkpt lat="44.34406" lon="2.48198">
        <ele>656</ele>
        <time>2013-06-18T16:16:17Z</time>
      </trkpt>
      <trkpt lat="44.344" lon="2.48208">
        <ele>656</ele>
        <time>2013-06-18T16:16:27Z</time>
      </trkpt>
      <trkpt lat="44.34392" lon="2.48218">
        <ele>653</ele>
        <time>2013-06-18T16:16:34Z</time>
      </trkpt>
      <trkpt lat="44.34383" lon="2.48225">
        <ele>652</ele>
        <time>2013-06-18T16:16:41Z</time>
      </trkpt>
      <trkpt lat="44.34376" lon="2.48235">
        <ele>652</ele>
        <time>2013-06-18T16:16:47Z</time>
      </trkpt>
      <trkpt lat="44.34367" lon="2.4824">
        <ele>650</ele>
        <time>2013-06-18T16:16:52Z</time>
      </trkpt>
      <trkpt lat="44.3436" lon="2.48248">
        <ele>649</ele>
        <time>2013-06-18T16:16:58Z</time>
      </trkpt>
      <trkpt lat="44.34351" lon="2.48254">
        <ele>649</ele>
        <time>2013-06-18T16:17:05Z</time>
      </trkpt>
      <trkpt lat="44.34346" lon="2.48258">
        <ele>650</ele>
        <time>2013-06-18T16:17:09Z</time>
      </trkpt>
      <trkpt lat="44.3434" lon="2.4826">
        <ele>650</ele>
        <time>2013-06-18T16:17:14Z</time>
      </trkpt>
      <trkpt lat="44.34335" lon="2.48262">
        <ele>651</ele>
        <time>2013-06-18T16:17:18Z</time>
      </trkpt>
      <trkpt lat="44.3433" lon="2.48264">
        <ele>651</ele>
        <time>2013-06-18T16:17:22Z</time>
      </trkpt>
      <trkpt lat="44.34326" lon="2.48265">
        <ele>650</ele>
        <time>2013-06-18T16:17:26Z</time>
      </trkpt>
      <trkpt lat="44.3432" lon="2.48266">
        <ele>650</ele>
        <time>2013-06-18T16:17:30Z</time>
      </trkpt>
      <trkpt lat="44.34314" lon="2.48267">
        <ele>650</ele>
        <time>2013-06-18T16:17:34Z</time>
      </trkpt>
      <trkpt lat="44.34309" lon="2.48268">
        <ele>650</ele>
        <time>2013-06-18T16:17:38Z</time>
      </trkpt>
      <trkpt lat="44.34304" lon="2.48269">
        <ele>650</ele>
        <time>2013-06-18T16:17:42Z</time>
      </trkpt>
      <trkpt lat="44.34298" lon="2.48271">
        <ele>650</ele>
        <time>2013-06-18T16:17:46Z</time>
      </trkpt>
      <trkpt lat="44.34292" lon="2.48271">
        <ele>651</ele>
        <time>2013-06-18T16:17:50Z</time>
      </trkpt>
      <trkpt lat="44.34286" lon="2.48273">
        <ele>651</ele>
        <time>2013-06-18T16:17:55Z</time>
      </trkpt>
      <trkpt lat="44.3428" lon="2.48275">
        <ele>651</ele>
        <time>2013-06-18T16:17:59Z</time>
      </trkpt>
      <trkpt lat="44.34274" lon="2.48276">
        <ele>650</ele>
        <time>2013-06-18T16:18:03Z</time>
      </trkpt>
      <trkpt lat="44.34269" lon="2.48277">
        <ele>650</ele>
        <time>2013-06-18T16:18:07Z</time>
      </trkpt>
      <trkpt lat="44.3426" lon="2.48278">
        <ele>652</ele>
        <time>2013-06-18T16:18:14Z</time>
      </trkpt>
      <trkpt lat="44.34254" lon="2.48279">
        <ele>652</ele>
        <time>2013-06-18T16:18:18Z</time>
      </trkpt>
      <trkpt lat="44.34246" lon="2.4828">
        <ele>653</ele>
        <time>2013-06-18T16:18:24Z</time>
      </trkpt>
      <trkpt lat="44.34241" lon="2.48282">
        <ele>654</ele>
        <time>2013-06-18T16:18:30Z</time>
      </trkpt>
      <trkpt lat="44.34235" lon="2.48283">
        <ele>654</ele>
        <time>2013-06-18T16:18:35Z</time>
      </trkpt>
      <trkpt lat="44.3423" lon="2.48284">
        <ele>654</ele>
        <time>2013-06-18T16:18:39Z</time>
      </trkpt>
      <trkpt lat="44.34221" lon="2.48285">
        <ele>654</ele>
        <time>2013-06-18T16:18:44Z</time>
      </trkpt>
      <trkpt lat="44.34216" lon="2.48286">
        <ele>654</ele>
        <time>2013-06-18T16:18:47Z</time>
      </trkpt>
      <trkpt lat="44.34211" lon="2.48288">
        <ele>653</ele>
        <time>2013-06-18T16:18:50Z</time>
      </trkpt>
      <trkpt lat="44.34202" lon="2.48291">
        <ele>653</ele>
        <time>2013-06-18T16:18:57Z</time>
      </trkpt>
      <trkpt lat="44.34197" lon="2.48294">
        <ele>652</ele>
        <time>2013-06-18T16:19:02Z</time>
      </trkpt>
      <trkpt lat="44.34189" lon="2.48301">
        <ele>651</ele>
        <time>2013-06-18T16:19:10Z</time>
      </trkpt>
      <trkpt lat="44.34185" lon="2.48304">
        <ele>649</ele>
        <time>2013-06-18T16:19:14Z</time>
      </trkpt>
      <trkpt lat="44.3418" lon="2.48307">
        <ele>649</ele>
        <time>2013-06-18T16:19:18Z</time>
      </trkpt>
      <trkpt lat="44.34171" lon="2.48313">
        <ele>649</ele>
        <time>2013-06-18T16:19:25Z</time>
      </trkpt>
      <trkpt lat="44.34163" lon="2.48319">
        <ele>648</ele>
        <time>2013-06-18T16:19:31Z</time>
      </trkpt>
      <trkpt lat="44.34153" lon="2.48322">
        <ele>649</ele>
        <time>2013-06-18T16:19:39Z</time>
      </trkpt>
      <trkpt lat="44.34144" lon="2.48326">
        <ele>649</ele>
        <time>2013-06-18T16:19:47Z</time>
      </trkpt>
      <trkpt lat="44.34134" lon="2.48327">
        <ele>648</ele>
        <time>2013-06-18T16:19:54Z</time>
      </trkpt>
      <trkpt lat="44.34129" lon="2.48327">
        <ele>648</ele>
        <time>2013-06-18T16:19:57Z</time>
      </trkpt>
      <trkpt lat="44.34123" lon="2.48326">
        <ele>648</ele>
        <time>2013-06-18T16:20:00Z</time>
      </trkpt>
      <trkpt lat="44.34117" lon="2.48326">
        <ele>650</ele>
        <time>2013-06-18T16:20:04Z</time>
      </trkpt>
      <trkpt lat="44.34112" lon="2.48325">
        <ele>650</ele>
        <time>2013-06-18T16:20:08Z</time>
      </trkpt>
      <trkpt lat="44.34106" lon="2.48324">
        <ele>651</ele>
        <time>2013-06-18T16:20:13Z</time>
      </trkpt>
      <trkpt lat="44.34101" lon="2.48324">
        <ele>651</ele>
        <time>2013-06-18T16:20:17Z</time>
      </trkpt>
      <trkpt lat="44.34096" lon="2.48323">
        <ele>650</ele>
        <time>2013-06-18T16:20:20Z</time>
      </trkpt>
      <trkpt lat="44.3409" lon="2.48322">
        <ele>649</ele>
        <time>2013-06-18T16:20:24Z</time>
      </trkpt>
      <trkpt lat="44.34081" lon="2.48319">
        <ele>648</ele>
        <time>2013-06-18T16:20:30Z</time>
      </trkpt>
      <trkpt lat="44.34076" lon="2.48318">
        <ele>647</ele>
        <time>2013-06-18T16:20:33Z</time>
      </trkpt>
      <trkpt lat="44.34071" lon="2.48317">
        <ele>646</ele>
        <time>2013-06-18T16:20:37Z</time>
      </trkpt>
      <trkpt lat="44.34062" lon="2.48316">
        <ele>646</ele>
        <time>2013-06-18T16:20:43Z</time>
      </trkpt>
      <trkpt lat="44.34057" lon="2.48316">
        <ele>646</ele>
        <time>2013-06-18T16:20:47Z</time>
      </trkpt>
      <trkpt lat="44.3405" lon="2.48316">
        <ele>645</ele>
        <time>2013-06-18T16:20:53Z</time>
      </trkpt>
      <trkpt lat="44.34043" lon="2.48316">
        <ele>645</ele>
        <time>2013-06-18T16:20:59Z</time>
      </trkpt>
      <trkpt lat="44.34038" lon="2.48315">
        <ele>645</ele>
        <time>2013-06-18T16:21:03Z</time>
      </trkpt>
      <trkpt lat="44.34033" lon="2.48315">
        <ele>645</ele>
        <time>2013-06-18T16:21:07Z</time>
      </trkpt>
      <trkpt lat="44.34028" lon="2.48314">
        <ele>645</ele>
        <time>2013-06-18T16:21:10Z</time>
      </trkpt>
      <trkpt lat="44.34023" lon="2.48313">
        <ele>644</ele>
        <time>2013-06-18T16:21:14Z</time>
      </trkpt>
      <trkpt lat="44.34018" lon="2.48313">
        <ele>644</ele>
        <time>2013-06-18T16:21:17Z</time>
      </trkpt>
      <trkpt lat="44.34013" lon="2.48313">
        <ele>643</ele>
        <time>2013-06-18T16:21:20Z</time>
      </trkpt>
      <trkpt lat="44.34008" lon="2.48312">
        <ele>642</ele>
        <time>2013-06-18T16:21:25Z</time>
      </trkpt>
      <trkpt lat="44.34003" lon="2.48311">
        <ele>642</ele>
        <time>2013-06-18T16:21:29Z</time>
      </trkpt>
      <trkpt lat="44.33998" lon="2.48312">
        <ele>642</ele>
        <time>2013-06-18T16:21:36Z</time>
      </trkpt>
      <trkpt lat="44.33987" lon="2.48311">
        <ele>641</ele>
        <time>2013-06-18T16:21:43Z</time>
      </trkpt>
      <trkpt lat="44.33978" lon="2.48308">
        <ele>639</ele>
        <time>2013-06-18T16:21:49Z</time>
      </trkpt>
      <trkpt lat="44.33973" lon="2.48306">
        <ele>637</ele>
        <time>2013-06-18T16:21:54Z</time>
      </trkpt>
      <trkpt lat="44.33968" lon="2.48305">
        <ele>636</ele>
        <time>2013-06-18T16:21:58Z</time>
      </trkpt>
      <trkpt lat="44.33962" lon="2.48305">
        <ele>636</ele>
        <time>2013-06-18T16:22:03Z</time>
      </trkpt>
      <trkpt lat="44.33957" lon="2.48305">
        <ele>635</ele>
        <time>2013-06-18T16:22:07Z</time>
      </trkpt>
      <trkpt lat="44.33947" lon="2.48303">
        <ele>635</ele>
        <time>2013-06-18T16:22:13Z</time>
      </trkpt>
      <trkpt lat="44.33942" lon="2.48302">
        <ele>634</ele>
        <time>2013-06-18T16:22:17Z</time>
      </trkpt>
      <trkpt lat="44.33937" lon="2.48302">
        <ele>634</ele>
        <time>2013-06-18T16:22:22Z</time>
      </trkpt>
      <trkpt lat="44.33931" lon="2.48302">
        <ele>634</ele>
        <time>2013-06-18T16:22:27Z</time>
      </trkpt>
      <trkpt lat="44.33926" lon="2.48302">
        <ele>633</ele>
        <time>2013-06-18T16:22:31Z</time>
      </trkpt>
      <trkpt lat="44.33921" lon="2.48301">
        <ele>632</ele>
        <time>2013-06-18T16:22:34Z</time>
      </trkpt>
      <trkpt lat="44.33916" lon="2.48301">
        <ele>631</ele>
        <time>2013-06-18T16:22:39Z</time>
      </trkpt>
      <trkpt lat="44.33908" lon="2.48302">
        <ele>632</ele>
        <time>2013-06-18T16:22:45Z</time>
      </trkpt>
      <trkpt lat="44.33903" lon="2.48302">
        <ele>633</ele>
        <time>2013-06-18T16:22:48Z</time>
      </trkpt>
      <trkpt lat="44.33899" lon="2.48302">
        <ele>634</ele>
        <time>2013-06-18T16:22:51Z</time>
      </trkpt>
      <trkpt lat="44.33894" lon="2.48303">
        <ele>634</ele>
        <time>2013-06-18T16:22:55Z</time>
      </trkpt>
      <trkpt lat="44.3389" lon="2.48307">
        <ele>633</ele>
        <time>2013-06-18T16:22:59Z</time>
      </trkpt>
      <trkpt lat="44.33886" lon="2.48312">
        <ele>632</ele>
        <time>2013-06-18T16:23:02Z</time>
      </trkpt>
      <trkpt lat="44.33878" lon="2.48319">
        <ele>630</ele>
        <time>2013-06-18T16:23:09Z</time>
      </trkpt>
      <trkpt lat="44.3387" lon="2.48323">
        <ele>628</ele>
        <time>2013-06-18T16:23:17Z</time>
      </trkpt>
      <trkpt lat="44.33865" lon="2.48336">
        <ele>626</ele>
        <time>2013-06-18T16:23:25Z</time>
      </trkpt>
      <trkpt lat="44.33861" lon="2.48347">
        <ele>626</ele>
        <time>2013-06-18T16:23:32Z</time>
      </trkpt>
      <trkpt lat="44.3386" lon="2.48354">
        <ele>625</ele>
        <time>2013-06-18T16:23:36Z</time>
      </trkpt>
      <trkpt lat="44.33857" lon="2.4836">
        <ele>624</ele>
        <time>2013-06-18T16:23:40Z</time>
      </trkpt>
      <trkpt lat="44.33855" lon="2.48367">
        <ele>624</ele>
        <time>2013-06-18T16:23:44Z</time>
      </trkpt>
      <trkpt lat="44.33853" lon="2.48375">
        <ele>624</ele>
        <time>2013-06-18T16:23:50Z</time>
      </trkpt>
      <trkpt lat="44.33848" lon="2.48387">
        <ele>624</ele>
        <time>2013-06-18T16:23:57Z</time>
      </trkpt>
      <trkpt lat="44.33844" lon="2.48399">
        <ele>624</ele>
        <time>2013-06-18T16:24:05Z</time>
      </trkpt>
      <trkpt lat="44.3384" lon="2.48405">
        <ele>624</ele>
        <time>2013-06-18T16:24:10Z</time>
      </trkpt>
      <trkpt lat="44.33836" lon="2.48409">
        <ele>624</ele>
        <time>2013-06-18T16:24:13Z</time>
      </trkpt>
      <trkpt lat="44.33832" lon="2.48413">
        <ele>624</ele>
        <time>2013-06-18T16:24:17Z</time>
      </trkpt>
      <trkpt lat="44.33824" lon="2.48424">
        <ele>625</ele>
        <time>2013-06-18T16:24:31Z</time>
      </trkpt>
      <trkpt lat="44.33817" lon="2.48433">
        <ele>624</ele>
        <time>2013-06-18T16:24:37Z</time>
      </trkpt>
      <trkpt lat="44.33813" lon="2.48439">
        <ele>621</ele>
        <time>2013-06-18T16:24:55Z</time>
      </trkpt>
      <trkpt lat="44.33809" lon="2.48441">
        <ele>621</ele>
        <time>2013-06-18T16:25:04Z</time>
      </trkpt>
      <trkpt lat="44.33803" lon="2.48452">
        <ele>620</ele>
        <time>2013-06-18T16:25:13Z</time>
      </trkpt>
      <trkpt lat="44.338" lon="2.48458">
        <ele>620</ele>
        <time>2013-06-18T16:25:16Z</time>
      </trkpt>
      <trkpt lat="44.33797" lon="2.48464">
        <ele>619</ele>
        <time>2013-06-18T16:25:20Z</time>
      </trkpt>
      <trkpt lat="44.33794" lon="2.4847">
        <ele>618</ele>
        <time>2013-06-18T16:25:24Z</time>
      </trkpt>
      <trkpt lat="44.33791" lon="2.48476">
        <ele>618</ele>
        <time>2013-06-18T16:25:28Z</time>
      </trkpt>
      <trkpt lat="44.33786" lon="2.48484">
        <ele>617</ele>
        <time>2013-06-18T16:25:35Z</time>
      </trkpt>
      <trkpt lat="44.33782" lon="2.48489">
        <ele>616</ele>
        <time>2013-06-18T16:25:38Z</time>
      </trkpt>
      <trkpt lat="44.33778" lon="2.48493">
        <ele>615</ele>
        <time>2013-06-18T16:25:42Z</time>
      </trkpt>
      <trkpt lat="44.33775" lon="2.48498">
        <ele>614</ele>
        <time>2013-06-18T16:25:45Z</time>
      </trkpt>
      <trkpt lat="44.33771" lon="2.48502">
        <ele>613</ele>
        <time>2013-06-18T16:25:48Z</time>
      </trkpt>
      <trkpt lat="44.33768" lon="2.48506">
        <ele>613</ele>
        <time>2013-06-18T16:25:51Z</time>
      </trkpt>
      <trkpt lat="44.33764" lon="2.48512">
        <ele>612</ele>
        <time>2013-06-18T16:25:55Z</time>
      </trkpt>
      <trkpt lat="44.3376" lon="2.48515">
        <ele>611</ele>
        <time>2013-06-18T16:25:58Z</time>
      </trkpt>
      <trkpt lat="44.33753" lon="2.48525">
        <ele>611</ele>
        <time>2013-06-18T16:26:05Z</time>
      </trkpt>
      <trkpt lat="44.3375" lon="2.48531">
        <ele>611</ele>
        <time>2013-06-18T16:26:08Z</time>
      </trkpt>
      <trkpt lat="44.33747" lon="2.48537">
        <ele>611</ele>
        <time>2013-06-18T16:26:11Z</time>
      </trkpt>
      <trkpt lat="44.33742" lon="2.48541">
        <ele>611</ele>
        <time>2013-06-18T16:26:14Z</time>
      </trkpt>
      <trkpt lat="44.33738" lon="2.48546">
        <ele>611</ele>
        <time>2013-06-18T16:26:17Z</time>
      </trkpt>
      <trkpt lat="44.33733" lon="2.48551">
        <ele>611</ele>
        <time>2013-06-18T16:26:20Z</time>
      </trkpt>
      <trkpt lat="44.3373" lon="2.48558">
        <ele>610</ele>
        <time>2013-06-18T16:26:24Z</time>
      </trkpt>
      <trkpt lat="44.33727" lon="2.48564">
        <ele>610</ele>
        <time>2013-06-18T16:26:27Z</time>
      </trkpt>
      <trkpt lat="44.33725" lon="2.4857">
        <ele>610</ele>
        <time>2013-06-18T16:26:30Z</time>
      </trkpt>
      <trkpt lat="44.33722" lon="2.48576">
        <ele>610</ele>
        <time>2013-06-18T16:26:33Z</time>
      </trkpt>
      <trkpt lat="44.33721" lon="2.48582">
        <ele>609</ele>
        <time>2013-06-18T16:26:36Z</time>
      </trkpt>
      <trkpt lat="44.33721" lon="2.48589">
        <ele>608</ele>
        <time>2013-06-18T16:26:40Z</time>
      </trkpt>
      <trkpt lat="44.33723" lon="2.48598">
        <ele>607</ele>
        <time>2013-06-18T16:26:45Z</time>
      </trkpt>
      <trkpt lat="44.33724" lon="2.48614">
        <ele>607</ele>
        <time>2013-06-18T16:26:55Z</time>
      </trkpt>
      <trkpt lat="44.33722" lon="2.48621">
        <ele>607</ele>
        <time>2013-06-18T16:27:00Z</time>
      </trkpt>
      <trkpt lat="44.33715" lon="2.48626">
        <ele>608</ele>
        <time>2013-06-18T16:27:06Z</time>
      </trkpt>
      <trkpt lat="44.33706" lon="2.48628">
        <ele>609</ele>
        <time>2013-06-18T16:27:13Z</time>
      </trkpt>
      <trkpt lat="44.33701" lon="2.4863">
        <ele>608</ele>
        <time>2013-06-18T16:27:16Z</time>
      </trkpt>
      <trkpt lat="44.33696" lon="2.48633">
        <ele>608</ele>
        <time>2013-06-18T16:27:19Z</time>
      </trkpt>
      <trkpt lat="44.33692" lon="2.48635">
        <ele>608</ele>
        <time>2013-06-18T16:27:22Z</time>
      </trkpt>
      <trkpt lat="44.33687" lon="2.48638">
        <ele>608</ele>
        <time>2013-06-18T16:27:25Z</time>
      </trkpt>
      <trkpt lat="44.33682" lon="2.48641">
        <ele>608</ele>
        <time>2013-06-18T16:27:28Z</time>
      </trkpt>
      <trkpt lat="44.33677" lon="2.48644">
        <ele>608</ele>
        <time>2013-06-18T16:27:32Z</time>
      </trkpt>
      <trkpt lat="44.33672" lon="2.48646">
        <ele>608</ele>
        <time>2013-06-18T16:27:36Z</time>
      </trkpt>
      <trkpt lat="44.33666" lon="2.48648">
        <ele>608</ele>
        <time>2013-06-18T16:27:40Z</time>
      </trkpt>
      <trkpt lat="44.33657" lon="2.48653">
        <ele>608</ele>
        <time>2013-06-18T16:27:46Z</time>
      </trkpt>
      <trkpt lat="44.33652" lon="2.48657">
        <ele>608</ele>
        <time>2013-06-18T16:27:50Z</time>
      </trkpt>
      <trkpt lat="44.33647" lon="2.4866">
        <ele>606</ele>
        <time>2013-06-18T16:27:54Z</time>
      </trkpt>
      <trkpt lat="44.33638" lon="2.48665">
        <ele>605</ele>
        <time>2013-06-18T16:28:01Z</time>
      </trkpt>
      <trkpt lat="44.33629" lon="2.48668">
        <ele>604</ele>
        <time>2013-06-18T16:28:06Z</time>
      </trkpt>
      <trkpt lat="44.33624" lon="2.4867">
        <ele>603</ele>
        <time>2013-06-18T16:28:09Z</time>
      </trkpt>
      <trkpt lat="44.3362" lon="2.48672">
        <ele>602</ele>
        <time>2013-06-18T16:28:13Z</time>
      </trkpt>
      <trkpt lat="44.33615" lon="2.48674">
        <ele>602</ele>
        <time>2013-06-18T16:28:17Z</time>
      </trkpt>
      <trkpt lat="44.33609" lon="2.48675">
        <ele>601</ele>
        <time>2013-06-18T16:28:21Z</time>
      </trkpt>
      <trkpt lat="44.33602" lon="2.48679">
        <ele>600</ele>
        <time>2013-06-18T16:28:26Z</time>
      </trkpt>
      <trkpt lat="44.33595" lon="2.48678">
        <ele>601</ele>
        <time>2013-06-18T16:28:32Z</time>
      </trkpt>
      <trkpt lat="44.3359" lon="2.48678">
        <ele>601</ele>
        <time>2013-06-18T16:28:35Z</time>
      </trkpt>
      <trkpt lat="44.33585" lon="2.48678">
        <ele>601</ele>
        <time>2013-06-18T16:28:38Z</time>
      </trkpt>
      <trkpt lat="44.33579" lon="2.48676">
        <ele>601</ele>
        <time>2013-06-18T16:28:42Z</time>
      </trkpt>
      <trkpt lat="44.33574" lon="2.48675">
        <ele>600</ele>
        <time>2013-06-18T16:28:46Z</time>
      </trkpt>
      <trkpt lat="44.33569" lon="2.48673">
        <ele>600</ele>
        <time>2013-06-18T16:28:50Z</time>
      </trkpt>
      <trkpt lat="44.33563" lon="2.48672">
        <ele>600</ele>
        <time>2013-06-18T16:28:54Z</time>
      </trkpt>
      <trkpt lat="44.33559" lon="2.4867">
        <ele>600</ele>
        <time>2013-06-18T16:28:57Z</time>
      </trkpt>
      <trkpt lat="44.33553" lon="2.4867">
        <ele>599</ele>
        <time>2013-06-18T16:29:01Z</time>
      </trkpt>
      <trkpt lat="44.33548" lon="2.48669">
        <ele>600</ele>
        <time>2013-06-18T16:29:05Z</time>
      </trkpt>
      <trkpt lat="44.33541" lon="2.48667">
        <ele>599</ele>
        <time>2013-06-18T16:29:11Z</time>
      </trkpt>
      <trkpt lat="44.33535" lon="2.48665">
        <ele>598</ele>
        <time>2013-06-18T16:29:16Z</time>
      </trkpt>
      <trkpt lat="44.3353" lon="2.48664">
        <ele>598</ele>
        <time>2013-06-18T16:29:20Z</time>
      </trkpt>
      <trkpt lat="44.33524" lon="2.48663">
        <ele>596</ele>
        <time>2013-06-18T16:29:24Z</time>
      </trkpt>
      <trkpt lat="44.3352" lon="2.48662">
        <ele>595</ele>
        <time>2013-06-18T16:29:27Z</time>
      </trkpt>
      <trkpt lat="44.33514" lon="2.48662">
        <ele>594</ele>
        <time>2013-06-18T16:29:30Z</time>
      </trkpt>
      <trkpt lat="44.3351" lon="2.48662">
        <ele>592</ele>
        <time>2013-06-18T16:29:33Z</time>
      </trkpt>
      <trkpt lat="44.33504" lon="2.48663">
        <ele>591</ele>
        <time>2013-06-18T16:29:37Z</time>
      </trkpt>
      <trkpt lat="44.33497" lon="2.48666">
        <ele>589</ele>
        <time>2013-06-18T16:29:42Z</time>
      </trkpt>
      <trkpt lat="44.33492" lon="2.48667">
        <ele>586</ele>
        <time>2013-06-18T16:29:46Z</time>
      </trkpt>
      <trkpt lat="44.33487" lon="2.48668">
        <ele>586</ele>
        <time>2013-06-18T16:29:49Z</time>
      </trkpt>
      <trkpt lat="44.33483" lon="2.48672">
        <ele>585</ele>
        <time>2013-06-18T16:29:53Z</time>
      </trkpt>
      <trkpt lat="44.33479" lon="2.48675">
        <ele>585</ele>
        <time>2013-06-18T16:29:56Z</time>
      </trkpt>
      <trkpt lat="44.33474" lon="2.48678">
        <ele>584</ele>
        <time>2013-06-18T16:30:00Z</time>
      </trkpt>
      <trkpt lat="44.33471" lon="2.48682">
        <ele>583</ele>
        <time>2013-06-18T16:30:04Z</time>
      </trkpt>
      <trkpt lat="44.33466" lon="2.48687">
        <ele>584</ele>
        <time>2013-06-18T16:30:08Z</time>
      </trkpt>
      <trkpt lat="44.33462" lon="2.48691">
        <ele>584</ele>
        <time>2013-06-18T16:30:12Z</time>
      </trkpt>
      <trkpt lat="44.33459" lon="2.48695">
        <ele>584</ele>
        <time>2013-06-18T16:30:16Z</time>
      </trkpt>
      <trkpt lat="44.33456" lon="2.48701">
        <ele>584</ele>
        <time>2013-06-18T16:30:19Z</time>
      </trkpt>
      <trkpt lat="44.33452" lon="2.48706">
        <ele>584</ele>
        <time>2013-06-18T16:30:24Z</time>
      </trkpt>
      <trkpt lat="44.33444" lon="2.48714">
        <ele>582</ele>
        <time>2013-06-18T16:30:33Z</time>
      </trkpt>
      <trkpt lat="44.33437" lon="2.48723">
        <ele>583</ele>
        <time>2013-06-18T16:30:42Z</time>
      </trkpt>
      <trkpt lat="44.33429" lon="2.48731">
        <ele>585</ele>
        <time>2013-06-18T16:30:47Z</time>
      </trkpt>
      <trkpt lat="44.33422" lon="2.4874">
        <ele>584</ele>
        <time>2013-06-18T16:30:53Z</time>
      </trkpt>
      <trkpt lat="44.33414" lon="2.48749">
        <ele>583</ele>
        <time>2013-06-18T16:30:59Z</time>
      </trkpt>
      <trkpt lat="44.3341" lon="2.4876">
        <ele>579</ele>
        <time>2013-06-18T16:31:09Z</time>
      </trkpt>
      <trkpt lat="44.33407" lon="2.48775">
        <ele>580</ele>
        <time>2013-06-18T16:31:16Z</time>
      </trkpt>
      <trkpt lat="44.33403" lon="2.48786">
        <ele>579</ele>
        <time>2013-06-18T16:31:22Z</time>
      </trkpt>
      <trkpt lat="44.33396" lon="2.48797">
        <ele>577</ele>
        <time>2013-06-18T16:31:29Z</time>
      </trkpt>
      <trkpt lat="44.3339" lon="2.48807">
        <ele>575</ele>
        <time>2013-06-18T16:31:36Z</time>
      </trkpt>
      <trkpt lat="44.33385" lon="2.48818">
        <ele>578</ele>
        <time>2013-06-18T16:31:43Z</time>
      </trkpt>
      <trkpt lat="44.3338" lon="2.4883">
        <ele>582</ele>
        <time>2013-06-18T16:31:51Z</time>
      </trkpt>
      <trkpt lat="44.33373" lon="2.4884">
        <ele>585</ele>
        <time>2013-06-18T16:32:00Z</time>
      </trkpt>
      <trkpt lat="44.33364" lon="2.48852">
        <ele>586</ele>
        <time>2013-06-18T16:32:06Z</time>
      </trkpt>
      <trkpt lat="44.33358" lon="2.48863">
        <ele>588</ele>
        <time>2013-06-18T16:32:14Z</time>
      </trkpt>
      <trkpt lat="44.33355" lon="2.48876">
        <ele>589</ele>
        <time>2013-06-18T16:32:24Z</time>
      </trkpt>
      <trkpt lat="44.3335" lon="2.48879">
        <ele>589</ele>
        <time>2013-06-18T16:32:52Z</time>
      </trkpt>
      <trkpt lat="44.33355" lon="2.48892">
        <ele>590</ele>
        <time>2013-06-18T16:33:31Z</time>
      </trkpt>
      <trkpt lat="44.33359" lon="2.48907">
        <ele>590</ele>
        <time>2013-06-18T16:33:43Z</time>
      </trkpt>
      <trkpt lat="44.3336" lon="2.48919">
        <ele>590</ele>
        <time>2013-06-18T16:33:51Z</time>
      </trkpt>
      <trkpt lat="44.33361" lon="2.48932">
        <ele>591</ele>
        <time>2013-06-18T16:34:00Z</time>
      </trkpt>
      <trkpt lat="44.33358" lon="2.48946">
        <ele>587</ele>
        <time>2013-06-18T16:34:31Z</time>
      </trkpt>
      <trkpt lat="44.33364" lon="2.48959">
        <ele>586</ele>
        <time>2013-06-18T16:34:36Z</time>
      </trkpt>
      <trkpt lat="44.33368" lon="2.48972">
        <ele>586</ele>
        <time>2013-06-18T16:34:39Z</time>
      </trkpt>
      <trkpt lat="44.33372" lon="2.48984">
        <ele>585</ele>
        <time>2013-06-18T16:34:42Z</time>
      </trkpt>
      <trkpt lat="44.33386" lon="2.49017">
        <ele>583</ele>
        <time>2013-06-18T16:34:54Z</time>
      </trkpt>
      <trkpt lat="44.33407" lon="2.49041">
        <ele>583</ele>
        <time>2013-06-18T16:35:07Z</time>
      </trkpt>
      <trkpt lat="44.33418" lon="2.4905">
        <ele>584</ele>
        <time>2013-06-18T16:35:15Z</time>
      </trkpt>
      <trkpt lat="44.33418" lon="2.49043">
        <ele>585</ele>
        <time>2013-06-18T16:35:27Z</time>
      </trkpt>
      <trkpt lat="44.33411" lon="2.49044">
        <ele>583</ele>
        <time>2013-06-18T16:36:13Z</time>
      </trkpt>
      <trkpt lat="44.334" lon="2.49047">
        <ele>583</ele>
        <time>2013-06-18T16:36:18Z</time>
      </trkpt>
      <trkpt lat="44.33393" lon="2.49055">
        <ele>584</ele>
        <time>2013-06-18T16:36:21Z</time>
      </trkpt>
      <trkpt lat="44.33384" lon="2.49063">
        <ele>585</ele>
        <time>2013-06-18T16:36:26Z</time>
      </trkpt>
      <trkpt lat="44.33376" lon="2.49072">
        <ele>586</ele>
        <time>2013-06-18T16:36:31Z</time>
      </trkpt>
      <trkpt lat="44.33367" lon="2.49074">
        <ele>586</ele>
        <time>2013-06-18T16:36:37Z</time>
      </trkpt>
      <trkpt lat="44.33357" lon="2.49078">
        <ele>587</ele>
        <time>2013-06-18T16:36:43Z</time>
      </trkpt>
      <trkpt lat="44.3335" lon="2.49087">
        <ele>587</ele>
        <time>2013-06-18T16:36:50Z</time>
      </trkpt>
      <trkpt lat="44.33344" lon="2.49096">
        <ele>587</ele>
        <time>2013-06-18T16:36:55Z</time>
      </trkpt>
      <trkpt lat="44.33338" lon="2.49108">
        <ele>588</ele>
        <time>2013-06-18T16:37:00Z</time>
      </trkpt>
      <trkpt lat="44.33332" lon="2.49121">
        <ele>586</ele>
        <time>2013-06-18T16:37:12Z</time>
      </trkpt>
      <trkpt lat="44.33325" lon="2.49131">
        <ele>585</ele>
        <time>2013-06-18T16:37:18Z</time>
      </trkpt>
      <trkpt lat="44.33315" lon="2.49139">
        <ele>586</ele>
        <time>2013-06-18T16:37:25Z</time>
      </trkpt>
      <trkpt lat="44.33306" lon="2.49143">
        <ele>587</ele>
        <time>2013-06-18T16:37:31Z</time>
      </trkpt>
      <trkpt lat="44.33296" lon="2.49143">
        <ele>587</ele>
        <time>2013-06-18T16:37:38Z</time>
      </trkpt>
      <trkpt lat="44.33286" lon="2.49144">
        <ele>587</ele>
        <time>2013-06-18T16:37:46Z</time>
      </trkpt>
      <trkpt lat="44.33277" lon="2.49141">
        <ele>587</ele>
        <time>2013-06-18T16:37:56Z</time>
      </trkpt>
      <trkpt lat="44.33277" lon="2.49126">
        <ele>586</ele>
        <time>2013-06-18T16:38:14Z</time>
      </trkpt>
      <trkpt lat="44.3328" lon="2.49109">
        <ele>579</ele>
        <time>2013-06-18T16:38:19Z</time>
      </trkpt>
      <trkpt lat="44.33267" lon="2.49105">
        <ele>571</ele>
        <time>2013-06-18T16:38:36Z</time>
      </trkpt>
      <trkpt lat="44.33257" lon="2.49115">
        <ele>571</ele>
        <time>2013-06-18T16:38:41Z</time>
      </trkpt>
      <trkpt lat="44.33252" lon="2.4913">
        <ele>571</ele>
        <time>2013-06-18T16:38:50Z</time>
      </trkpt>
      <trkpt lat="44.33244" lon="2.49144">
        <ele>574</ele>
        <time>2013-06-18T16:38:58Z</time>
      </trkpt>
      <trkpt lat="44.33248" lon="2.49157">
        <ele>575</ele>
        <time>2013-06-18T16:39:03Z</time>
      </trkpt>
      <trkpt lat="44.33254" lon="2.49169">
        <ele>577</ele>
        <time>2013-06-18T16:39:10Z</time>
      </trkpt>
      <trkpt lat="44.3326" lon="2.49179">
        <ele>578</ele>
        <time>2013-06-18T16:39:16Z</time>
      </trkpt>
      <trkpt lat="44.33292" lon="2.4921">
        <ele>580</ele>
        <time>2013-06-18T16:39:52Z</time>
      </trkpt>
      <trkpt lat="44.33345" lon="2.4921">
        <ele>532</ele>
        <time>2013-06-18T16:40:30Z</time>
      </trkpt>
      <trkpt lat="44.3338" lon="2.49213">
        <ele>519</ele>
        <time>2013-06-18T16:41:01Z</time>
      </trkpt>
      <trkpt lat="44.33385" lon="2.49215">
        <ele>518</ele>
        <time>2013-06-18T16:41:05Z</time>
      </trkpt>
      <trkpt lat="44.3339" lon="2.49216">
        <ele>516</ele>
        <time>2013-06-18T16:41:09Z</time>
      </trkpt>
      <trkpt lat="44.33395" lon="2.49216">
        <ele>515</ele>
        <time>2013-06-18T16:41:13Z</time>
      </trkpt>
      <trkpt lat="44.33401" lon="2.49218">
        <ele>515</ele>
        <time>2013-06-18T16:41:17Z</time>
      </trkpt>
      <trkpt lat="44.33406" lon="2.49218">
        <ele>513</ele>
        <time>2013-06-18T16:41:21Z</time>
      </trkpt>
      <trkpt lat="44.33412" lon="2.49219">
        <ele>513</ele>
        <time>2013-06-18T16:41:25Z</time>
      </trkpt>
      <trkpt lat="44.33417" lon="2.4922">
        <ele>512</ele>
        <time>2013-06-18T16:41:29Z</time>
      </trkpt>
      <trkpt lat="44.33422" lon="2.4922">
        <ele>512</ele>
        <time>2013-06-18T16:41:33Z</time>
      </trkpt>
      <trkpt lat="44.33428" lon="2.4922">
        <ele>512</ele>
        <time>2013-06-18T16:41:37Z</time>
      </trkpt>
      <trkpt lat="44.33433" lon="2.49221">
        <ele>511</ele>
        <time>2013-06-18T16:41:41Z</time>
      </trkpt>
      <trkpt lat="44.33438" lon="2.49221">
        <ele>511</ele>
        <time>2013-06-18T16:41:45Z</time>
      </trkpt>
      <trkpt lat="44.33443" lon="2.49219">
        <ele>512</ele>
        <time>2013-06-18T16:41:49Z</time>
      </trkpt>
      <trkpt lat="44.3345" lon="2.49216">
        <ele>513</ele>
        <time>2013-06-18T16:41:54Z</time>
      </trkpt>
      <trkpt lat="44.33456" lon="2.49217">
        <ele>515</ele>
        <time>2013-06-18T16:41:59Z</time>
      </trkpt>
      <trkpt lat="44.3346" lon="2.49214">
        <ele>516</ele>
        <time>2013-06-18T16:42:08Z</time>
      </trkpt>
      <trkpt lat="44.33471" lon="2.49213">
        <ele>515</ele>
        <time>2013-06-18T16:42:19Z</time>
      </trkpt>
      <trkpt lat="44.33481" lon="2.49207">
        <ele>512</ele>
        <time>2013-06-18T16:42:27Z</time>
      </trkpt>
      <trkpt lat="44.33491" lon="2.49205">
        <ele>509</ele>
        <time>2013-06-18T16:42:35Z</time>
      </trkpt>
      <trkpt lat="44.33503" lon="2.49203">
        <ele>504</ele>
        <time>2013-06-18T16:42:48Z</time>
      </trkpt>
      <trkpt lat="44.33512" lon="2.49201">
        <ele>504</ele>
        <time>2013-06-18T16:42:53Z</time>
      </trkpt>
      <trkpt lat="44.33521" lon="2.49198">
        <ele>514</ele>
        <time>2013-06-18T16:43:07Z</time>
      </trkpt>
      <trkpt lat="44.33531" lon="2.49195">
        <ele>514</ele>
        <time>2013-06-18T16:43:15Z</time>
      </trkpt>
      <trkpt lat="44.33545" lon="2.49192">
        <ele>516</ele>
        <time>2013-06-18T16:43:26Z</time>
      </trkpt>
      <trkpt lat="44.33554" lon="2.49186">
        <ele>516</ele>
        <time>2013-06-18T16:43:33Z</time>
      </trkpt>
      <trkpt lat="44.33565" lon="2.49186">
        <ele>513</ele>
        <time>2013-06-18T16:43:47Z</time>
      </trkpt>
      <trkpt lat="44.33575" lon="2.4919">
        <ele>513</ele>
        <time>2013-06-18T16:43:52Z</time>
      </trkpt>
      <trkpt lat="44.33586" lon="2.49189">
        <ele>511</ele>
        <time>2013-06-18T16:44:01Z</time>
      </trkpt>
      <trkpt lat="44.33597" lon="2.49188">
        <ele>510</ele>
        <time>2013-06-18T16:44:08Z</time>
      </trkpt>
      <trkpt lat="44.33607" lon="2.49185">
        <ele>510</ele>
        <time>2013-06-18T16:44:14Z</time>
      </trkpt>
      <trkpt lat="44.33619" lon="2.49185">
        <ele>509</ele>
        <time>2013-06-18T16:44:23Z</time>
      </trkpt>
      <trkpt lat="44.33628" lon="2.49179">
        <ele>507</ele>
        <time>2013-06-18T16:44:30Z</time>
      </trkpt>
      <trkpt lat="44.33637" lon="2.49174">
        <ele>506</ele>
        <time>2013-06-18T16:44:37Z</time>
      </trkpt>
      <trkpt lat="44.33646" lon="2.49168">
        <ele>505</ele>
        <time>2013-06-18T16:44:43Z</time>
      </trkpt>
      <trkpt lat="44.33654" lon="2.49158">
        <ele>503</ele>
        <time>2013-06-18T16:44:49Z</time>
      </trkpt>
      <trkpt lat="44.33662" lon="2.49146">
        <ele>501</ele>
        <time>2013-06-18T16:44:58Z</time>
      </trkpt>
      <trkpt lat="44.33668" lon="2.49141">
        <ele>506</ele>
        <time>2013-06-18T16:45:24Z</time>
      </trkpt>
      <trkpt lat="44.33672" lon="2.49129">
        <ele>505</ele>
        <time>2013-06-18T16:45:44Z</time>
      </trkpt>
      <trkpt lat="44.33677" lon="2.49132">
        <ele>510</ele>
        <time>2013-06-18T16:46:53Z</time>
      </trkpt>
      <trkpt lat="44.33688" lon="2.49128">
        <ele>509</ele>
        <time>2013-06-18T16:48:07Z</time>
      </trkpt>
      <trkpt lat="44.33691" lon="2.49124">
        <ele>510</ele>
        <time>2013-06-18T16:48:11Z</time>
      </trkpt>
      <trkpt lat="44.33693" lon="2.49127">
        <ele>505</ele>
        <time>2013-06-18T16:49:13Z</time>
      </trkpt>
      <trkpt lat="44.33699" lon="2.49137">
        <ele>503</ele>
        <time>2013-06-18T16:49:22Z</time>
      </trkpt>
      <trkpt lat="44.33702" lon="2.49142">
        <ele>502</ele>
        <time>2013-06-18T16:49:26Z</time>
      </trkpt>
      <trkpt lat="44.33705" lon="2.49147">
        <ele>499</ele>
        <time>2013-06-18T16:49:29Z</time>
      </trkpt>
      <trkpt lat="44.33709" lon="2.49154">
        <ele>497</ele>
        <time>2013-06-18T16:49:34Z</time>
      </trkpt>
      <trkpt lat="44.33716" lon="2.49168">
        <ele>490</ele>
        <time>2013-06-18T16:49:46Z</time>
      </trkpt>
      <trkpt lat="44.33719" lon="2.49174">
        <ele>490</ele>
        <time>2013-06-18T16:49:50Z</time>
      </trkpt>
      <trkpt lat="44.3372" lon="2.49181">
        <ele>490</ele>
        <time>2013-06-18T16:49:55Z</time>
      </trkpt>
      <trkpt lat="44.33723" lon="2.4919">
        <ele>488</ele>
        <time>2013-06-18T16:50:00Z</time>
      </trkpt>
      <trkpt lat="44.33729" lon="2.492">
        <ele>484</ele>
        <time>2013-06-18T16:50:07Z</time>
      </trkpt>
      <trkpt lat="44.33734" lon="2.49211">
        <ele>483</ele>
        <time>2013-06-18T16:50:14Z</time>
      </trkpt>
      <trkpt lat="44.3374" lon="2.49221">
        <ele>485</ele>
        <time>2013-06-18T16:50:20Z</time>
      </trkpt>
      <trkpt lat="44.3375" lon="2.49221">
        <ele>485</ele>
        <time>2013-06-18T16:50:28Z</time>
      </trkpt>
      <trkpt lat="44.3376" lon="2.49219">
        <ele>484</ele>
        <time>2013-06-18T16:50:36Z</time>
      </trkpt>
      <trkpt lat="44.3377" lon="2.49214">
        <ele>483</ele>
        <time>2013-06-18T16:50:42Z</time>
      </trkpt>
      <trkpt lat="44.33779" lon="2.49208">
        <ele>483</ele>
        <time>2013-06-18T16:50:50Z</time>
      </trkpt>
      <trkpt lat="44.33787" lon="2.49205">
        <ele>485</ele>
        <time>2013-06-18T16:50:57Z</time>
      </trkpt>
      <trkpt lat="44.33797" lon="2.49202">
        <ele>490</ele>
        <time>2013-06-18T16:51:08Z</time>
      </trkpt>
      <trkpt lat="44.33806" lon="2.49199">
        <ele>490</ele>
        <time>2013-06-18T16:51:14Z</time>
      </trkpt>
      <trkpt lat="44.33815" lon="2.49193">
        <ele>489</ele>
        <time>2013-06-18T16:51:20Z</time>
      </trkpt>
      <trkpt lat="44.33827" lon="2.49189">
        <ele>493</ele>
        <time>2013-06-18T16:51:32Z</time>
      </trkpt>
      <trkpt lat="44.33836" lon="2.49187">
        <ele>495</ele>
        <time>2013-06-18T16:51:39Z</time>
      </trkpt>
      <trkpt lat="44.33834" lon="2.49197">
        <ele>500</ele>
        <time>2013-06-18T16:52:05Z</time>
      </trkpt>
      <trkpt lat="44.33825" lon="2.49203">
        <ele>501</ele>
        <time>2013-06-18T16:52:13Z</time>
      </trkpt>
      <trkpt lat="44.33819" lon="2.49212">
        <ele>503</ele>
        <time>2013-06-18T16:52:20Z</time>
      </trkpt>
      <trkpt lat="44.33816" lon="2.49225">
        <ele>503</ele>
        <time>2013-06-18T16:52:27Z</time>
      </trkpt>
      <trkpt lat="44.33814" lon="2.49233">
        <ele>503</ele>
        <time>2013-06-18T16:52:33Z</time>
      </trkpt>
      <trkpt lat="44.33813" lon="2.49241">
        <ele>506</ele>
        <time>2013-06-18T16:52:37Z</time>
      </trkpt>
      <trkpt lat="44.3381" lon="2.49246">
        <ele>507</ele>
        <time>2013-06-18T16:52:42Z</time>
      </trkpt>
      <trkpt lat="44.33801" lon="2.49254">
        <ele>507</ele>
        <time>2013-06-18T16:52:50Z</time>
      </trkpt>
      <trkpt lat="44.33795" lon="2.49261">
        <ele>506</ele>
        <time>2013-06-18T16:52:55Z</time>
      </trkpt>
      <trkpt lat="44.33792" lon="2.49273">
        <ele>506</ele>
        <time>2013-06-18T16:53:02Z</time>
      </trkpt>
      <trkpt lat="44.33788" lon="2.49284">
        <ele>506</ele>
        <time>2013-06-18T16:53:08Z</time>
      </trkpt>
      <trkpt lat="44.33786" lon="2.49291">
        <ele>506</ele>
        <time>2013-06-18T16:53:10Z</time>
      </trkpt>
      <trkpt lat="44.33782" lon="2.49305">
        <ele>505</ele>
        <time>2013-06-18T16:53:18Z</time>
      </trkpt>
      <trkpt lat="44.33772" lon="2.49317">
        <ele>500</ele>
        <time>2013-06-18T16:53:33Z</time>
      </trkpt>
      <trkpt lat="44.33766" lon="2.49331">
        <ele>499</ele>
        <time>2013-06-18T16:53:38Z</time>
      </trkpt>
      <trkpt lat="44.33766" lon="2.49345">
        <ele>498</ele>
        <time>2013-06-18T16:53:43Z</time>
      </trkpt>
      <trkpt lat="44.33771" lon="2.49356">
        <ele>498</ele>
        <time>2013-06-18T16:53:50Z</time>
      </trkpt>
      <trkpt lat="44.33777" lon="2.49366">
        <ele>498</ele>
        <time>2013-06-18T16:53:57Z</time>
      </trkpt>
      <trkpt lat="44.33783" lon="2.49375">
        <ele>497</ele>
        <time>2013-06-18T16:54:03Z</time>
      </trkpt>
      <trkpt lat="44.33787" lon="2.4938">
        <ele>496</ele>
        <time>2013-06-18T16:54:06Z</time>
      </trkpt>
      <trkpt lat="44.33792" lon="2.49392">
        <ele>496</ele>
        <time>2013-06-18T16:54:11Z</time>
      </trkpt>
      <trkpt lat="44.33795" lon="2.49398">
        <ele>495</ele>
        <time>2013-06-18T16:54:14Z</time>
      </trkpt>
      <trkpt lat="44.33799" lon="2.49403">
        <ele>494</ele>
        <time>2013-06-18T16:54:17Z</time>
      </trkpt>
      <trkpt lat="44.33802" lon="2.49409">
        <ele>494</ele>
        <time>2013-06-18T16:54:20Z</time>
      </trkpt>
      <trkpt lat="44.33805" lon="2.49413">
        <ele>495</ele>
        <time>2013-06-18T16:54:23Z</time>
      </trkpt>
      <trkpt lat="44.33808" lon="2.49419">
        <ele>495</ele>
        <time>2013-06-18T16:54:26Z</time>
      </trkpt>
      <trkpt lat="44.33819" lon="2.4943">
        <ele>494</ele>
        <time>2013-06-18T16:54:46Z</time>
      </trkpt>
      <trkpt lat="44.33823" lon="2.49439">
        <ele>493</ele>
        <time>2013-06-18T16:54:52Z</time>
      </trkpt>
      <trkpt lat="44.33827" lon="2.49447">
        <ele>493</ele>
        <time>2013-06-18T16:54:57Z</time>
      </trkpt>
      <trkpt lat="44.33835" lon="2.49461">
        <ele>494</ele>
        <time>2013-06-18T16:55:11Z</time>
      </trkpt>
      <trkpt lat="44.33838" lon="2.49466">
        <ele>493</ele>
        <time>2013-06-18T16:55:15Z</time>
      </trkpt>
      <trkpt lat="44.33844" lon="2.49477">
        <ele>493</ele>
        <time>2013-06-18T16:55:22Z</time>
      </trkpt>
      <trkpt lat="44.33848" lon="2.49482">
        <ele>494</ele>
        <time>2013-06-18T16:55:26Z</time>
      </trkpt>
      <trkpt lat="44.33856" lon="2.49491">
        <ele>494</ele>
        <time>2013-06-18T16:55:33Z</time>
      </trkpt>
      <trkpt lat="44.33858" lon="2.49498">
        <ele>494</ele>
        <time>2013-06-18T16:55:36Z</time>
      </trkpt>
      <trkpt lat="44.33862" lon="2.49504">
        <ele>493</ele>
        <time>2013-06-18T16:55:40Z</time>
      </trkpt>
      <trkpt lat="44.33865" lon="2.4951">
        <ele>492</ele>
        <time>2013-06-18T16:55:44Z</time>
      </trkpt>
      <trkpt lat="44.33868" lon="2.49515">
        <ele>493</ele>
        <time>2013-06-18T16:55:47Z</time>
      </trkpt>
      <trkpt lat="44.33873" lon="2.49521">
        <ele>494</ele>
        <time>2013-06-18T16:55:52Z</time>
      </trkpt>
      <trkpt lat="44.33879" lon="2.49529">
        <ele>494</ele>
        <time>2013-06-18T16:55:59Z</time>
      </trkpt>
      <trkpt lat="44.33883" lon="2.49535">
        <ele>494</ele>
        <time>2013-06-18T16:56:04Z</time>
      </trkpt>
      <trkpt lat="44.33887" lon="2.49542">
        <ele>495</ele>
        <time>2013-06-18T16:56:08Z</time>
      </trkpt>
      <trkpt lat="44.33892" lon="2.49549">
        <ele>496</ele>
        <time>2013-06-18T16:56:13Z</time>
      </trkpt>
      <trkpt lat="44.33899" lon="2.49555">
        <ele>495</ele>
        <time>2013-06-18T16:56:19Z</time>
      </trkpt>
      <trkpt lat="44.33903" lon="2.49561">
        <ele>493</ele>
        <time>2013-06-18T16:56:30Z</time>
      </trkpt>
      <trkpt lat="44.33913" lon="2.49564">
        <ele>494</ele>
        <time>2013-06-18T16:56:38Z</time>
      </trkpt>
      <trkpt lat="44.33918" lon="2.49567">
        <ele>494</ele>
        <time>2013-06-18T16:56:45Z</time>
      </trkpt>
      <trkpt lat="44.33929" lon="2.49567">
        <ele>493</ele>
        <time>2013-06-18T16:56:51Z</time>
      </trkpt>
      <trkpt lat="44.33935" lon="2.49567">
        <ele>493</ele>
        <time>2013-06-18T16:56:55Z</time>
      </trkpt>
      <trkpt lat="44.33941" lon="2.49569">
        <ele>493</ele>
        <time>2013-06-18T16:56:59Z</time>
      </trkpt>
      <trkpt lat="44.3395" lon="2.49567">
        <ele>495</ele>
        <time>2013-06-18T16:57:06Z</time>
      </trkpt>
      <trkpt lat="44.33956" lon="2.49566">
        <ele>495</ele>
        <time>2013-06-18T16:57:09Z</time>
      </trkpt>
      <trkpt lat="44.33963" lon="2.49563">
        <ele>496</ele>
        <time>2013-06-18T16:57:14Z</time>
      </trkpt>
      <trkpt lat="44.33967" lon="2.49562">
        <ele>496</ele>
        <time>2013-06-18T16:57:17Z</time>
      </trkpt>
      <trkpt lat="44.33973" lon="2.49559">
        <ele>497</ele>
        <time>2013-06-18T16:57:22Z</time>
      </trkpt>
      <trkpt lat="44.33978" lon="2.49558">
        <ele>498</ele>
        <time>2013-06-18T16:57:25Z</time>
      </trkpt>
      <trkpt lat="44.33983" lon="2.49555">
        <ele>499</ele>
        <time>2013-06-18T16:57:28Z</time>
      </trkpt>
      <trkpt lat="44.33988" lon="2.49553">
        <ele>501</ele>
        <time>2013-06-18T16:57:31Z</time>
      </trkpt>
      <trkpt lat="44.33993" lon="2.4955">
        <ele>502</ele>
        <time>2013-06-18T16:57:36Z</time>
      </trkpt>
      <trkpt lat="44.33998" lon="2.49549">
        <ele>502</ele>
        <time>2013-06-18T16:57:40Z</time>
      </trkpt>
      <trkpt lat="44.33999" lon="2.49556">
        <ele>503</ele>
        <time>2013-06-18T16:57:47Z</time>
      </trkpt>
      <trkpt lat="44.33995" lon="2.49561">
        <ele>504</ele>
        <time>2013-06-18T16:57:51Z</time>
      </trkpt>
      <trkpt lat="44.33992" lon="2.49566">
        <ele>504</ele>
        <time>2013-06-18T16:57:55Z</time>
      </trkpt>
      <trkpt lat="44.33988" lon="2.49572">
        <ele>504</ele>
        <time>2013-06-18T16:58:04Z</time>
      </trkpt>
      <trkpt lat="44.33981" lon="2.49575">
        <ele>503</ele>
        <time>2013-06-18T16:58:07Z</time>
      </trkpt>
      <trkpt lat="44.33979" lon="2.49583">
        <ele>504</ele>
        <time>2013-06-18T16:58:21Z</time>
      </trkpt>
      <trkpt lat="44.33974" lon="2.49594">
        <ele>505</ele>
        <time>2013-06-18T16:58:28Z</time>
      </trkpt>
      <trkpt lat="44.3397" lon="2.496">
        <ele>504</ele>
        <time>2013-06-18T16:58:31Z</time>
      </trkpt>
      <trkpt lat="44.33968" lon="2.49606">
        <ele>503</ele>
        <time>2013-06-18T16:58:34Z</time>
      </trkpt>
      <trkpt lat="44.33966" lon="2.49612">
        <ele>502</ele>
        <time>2013-06-18T16:58:38Z</time>
      </trkpt>
      <trkpt lat="44.33963" lon="2.49624">
        <ele>501</ele>
        <time>2013-06-18T16:58:45Z</time>
      </trkpt>
      <trkpt lat="44.33961" lon="2.49638">
        <ele>501</ele>
        <time>2013-06-18T16:58:52Z</time>
      </trkpt>
      <trkpt lat="44.33961" lon="2.49652">
        <ele>501</ele>
        <time>2013-06-18T16:58:58Z</time>
      </trkpt>
      <trkpt lat="44.3396" lon="2.4966">
        <ele>501</ele>
        <time>2013-06-18T16:59:02Z</time>
      </trkpt>
      <trkpt lat="44.3396" lon="2.49666">
        <ele>500</ele>
        <time>2013-06-18T16:59:05Z</time>
      </trkpt>
      <trkpt lat="44.33962" lon="2.49679">
        <ele>499</ele>
        <time>2013-06-18T16:59:12Z</time>
      </trkpt>
      <trkpt lat="44.33965" lon="2.49692">
        <ele>500</ele>
        <time>2013-06-18T16:59:18Z</time>
      </trkpt>
      <trkpt lat="44.33971" lon="2.49704">
        <ele>501</ele>
        <time>2013-06-18T16:59:26Z</time>
      </trkpt>
      <trkpt lat="44.33975" lon="2.49716">
        <ele>504</ele>
        <time>2013-06-18T16:59:35Z</time>
      </trkpt>
      <trkpt lat="44.33983" lon="2.49727">
        <ele>508</ele>
        <time>2013-06-18T16:59:45Z</time>
      </trkpt>
      <trkpt lat="44.33988" lon="2.4974">
        <ele>515</ele>
        <time>2013-06-18T16:59:53Z</time>
      </trkpt>
      <trkpt lat="44.33994" lon="2.49751">
        <ele>516</ele>
        <time>2013-06-18T16:59:58Z</time>
      </trkpt>
      <trkpt lat="44.33999" lon="2.49762">
        <ele>517</ele>
        <time>2013-06-18T17:00:03Z</time>
      </trkpt>
      <trkpt lat="44.34008" lon="2.4977">
        <ele>515</ele>
        <time>2013-06-18T17:00:09Z</time>
      </trkpt>
      <trkpt lat="44.34016" lon="2.49779">
        <ele>514</ele>
        <time>2013-06-18T17:00:16Z</time>
      </trkpt>
      <trkpt lat="44.34022" lon="2.49786">
        <ele>515</ele>
        <time>2013-06-18T17:00:22Z</time>
      </trkpt>
      <trkpt lat="44.34029" lon="2.49796">
        <ele>513</ele>
        <time>2013-06-18T17:00:28Z</time>
      </trkpt>
      <trkpt lat="44.34032" lon="2.49802">
        <ele>512</ele>
        <time>2013-06-18T17:00:33Z</time>
      </trkpt>
      <trkpt lat="44.34041" lon="2.49811">
        <ele>510</ele>
        <time>2013-06-18T17:00:42Z</time>
      </trkpt>
      <trkpt lat="44.3405" lon="2.49806">
        <ele>505</ele>
        <time>2013-06-18T17:00:52Z</time>
      </trkpt>
      <trkpt lat="44.34058" lon="2.498">
        <ele>504</ele>
        <time>2013-06-18T17:01:01Z</time>
      </trkpt>
      <trkpt lat="44.34067" lon="2.49795">
        <ele>502</ele>
        <time>2013-06-18T17:01:07Z</time>
      </trkpt>
      <trkpt lat="44.34076" lon="2.4979">
        <ele>500</ele>
        <time>2013-06-18T17:01:14Z</time>
      </trkpt>
      <trkpt lat="44.34085" lon="2.49785">
        <ele>503</ele>
        <time>2013-06-18T17:01:21Z</time>
      </trkpt>
      <trkpt lat="44.34095" lon="2.49781">
        <ele>504</ele>
        <time>2013-06-18T17:01:29Z</time>
      </trkpt>
      <trkpt lat="44.34101" lon="2.49791">
        <ele>503</ele>
        <time>2013-06-18T17:01:36Z</time>
      </trkpt>
      <trkpt lat="44.34109" lon="2.49799">
        <ele>504</ele>
        <time>2013-06-18T17:01:45Z</time>
      </trkpt>
      <trkpt lat="44.341" lon="2.49804">
        <ele>505</ele>
        <time>2013-06-18T17:01:53Z</time>
      </trkpt>
      <trkpt lat="44.3409" lon="2.49807">
        <ele>507</ele>
        <time>2013-06-18T17:02:05Z</time>
      </trkpt>
      <trkpt lat="44.34082" lon="2.49811">
        <ele>509</ele>
        <time>2013-06-18T17:02:11Z</time>
      </trkpt>
      <trkpt lat="44.34078" lon="2.49814">
        <ele>510</ele>
        <time>2013-06-18T17:02:15Z</time>
      </trkpt>
      <trkpt lat="44.34073" lon="2.49818">
        <ele>511</ele>
        <time>2013-06-18T17:02:21Z</time>
      </trkpt>
      <trkpt lat="44.34068" lon="2.49825">
        <ele>513</ele>
        <time>2013-06-18T17:02:27Z</time>
      </trkpt>
      <trkpt lat="44.34065" lon="2.49831">
        <ele>514</ele>
        <time>2013-06-18T17:02:30Z</time>
      </trkpt>
      <trkpt lat="44.34061" lon="2.49835">
        <ele>515</ele>
        <time>2013-06-18T17:02:33Z</time>
      </trkpt>
      <trkpt lat="44.34057" lon="2.4984">
        <ele>515</ele>
        <time>2013-06-18T17:02:39Z</time>
      </trkpt>
      <trkpt lat="44.34053" lon="2.49845">
        <ele>516</ele>
        <time>2013-06-18T17:02:44Z</time>
      </trkpt>
      <trkpt lat="44.34052" lon="2.49848">
        <ele>517</ele>
        <time>2013-06-18T17:02:50Z</time>
      </trkpt>
      <trkpt lat="44.34055" lon="2.49858">
        <ele>523</ele>
        <time>2013-06-18T17:03:06Z</time>
      </trkpt>
      <trkpt lat="44.34059" lon="2.49868">
        <ele>526</ele>
        <time>2013-06-18T17:03:13Z</time>
      </trkpt>
      <trkpt lat="44.34063" lon="2.49871">
        <ele>524</ele>
        <time>2013-06-18T17:03:21Z</time>
      </trkpt>
      <trkpt lat="44.34066" lon="2.4987">
        <ele>523</ele>
        <time>2013-06-18T17:03:41Z</time>
      </trkpt>
      <trkpt lat="44.34069" lon="2.49865">
        <ele>522</ele>
        <time>2013-06-18T17:03:51Z</time>
      </trkpt>
      <trkpt lat="44.34075" lon="2.49854">
        <ele>521</ele>
        <time>2013-06-18T17:03:59Z</time>
      </trkpt>
      <trkpt lat="44.34079" lon="2.49858">
        <ele>522</ele>
        <time>2013-06-18T17:04:06Z</time>
      </trkpt>
      <trkpt lat="44.34078" lon="2.49865">
        <ele>522</ele>
        <time>2013-06-18T17:04:11Z</time>
      </trkpt>
      <trkpt lat="44.34077" lon="2.49871">
        <ele>524</ele>
        <time>2013-06-18T17:04:15Z</time>
      </trkpt>
      <trkpt lat="44.34076" lon="2.49879">
        <ele>524</ele>
        <time>2013-06-18T17:04:19Z</time>
      </trkpt>
      <trkpt lat="44.34082" lon="2.49881">
        <ele>524</ele>
        <time>2013-06-18T17:04:28Z</time>
      </trkpt>
      <trkpt lat="44.34087" lon="2.49878">
        <ele>524</ele>
        <time>2013-06-18T17:04:33Z</time>
      </trkpt>
      <trkpt lat="44.34091" lon="2.49874">
        <ele>524</ele>
        <time>2013-06-18T17:04:37Z</time>
      </trkpt>
      <trkpt lat="44.34098" lon="2.49871">
        <ele>524</ele>
        <time>2013-06-18T17:04:43Z</time>
      </trkpt>
      <trkpt lat="44.34103" lon="2.49871">
        <ele>525</ele>
        <time>2013-06-18T17:04:47Z</time>
      </trkpt>
      <trkpt lat="44.34107" lon="2.49876">
        <ele>525</ele>
        <time>2013-06-18T17:04:53Z</time>
      </trkpt>
      <trkpt lat="44.34106" lon="2.49887">
        <ele>527</ele>
        <time>2013-06-18T17:05:02Z</time>
      </trkpt>
      <trkpt lat="44.34106" lon="2.49897">
        <ele>528</ele>
        <time>2013-06-18T17:05:09Z</time>
      </trkpt>
      <trkpt lat="44.34109" lon="2.49903">
        <ele>531</ele>
        <time>2013-06-18T17:05:15Z</time>
      </trkpt>
      <trkpt lat="44.34123" lon="2.49949">
        <ele>544</ele>
        <time>2013-06-18T17:05:55Z</time>
      </trkpt>
      <trkpt lat="44.34123" lon="2.49955">
        <ele>545</ele>
        <time>2013-06-18T17:05:59Z</time>
      </trkpt>
      <trkpt lat="44.34127" lon="2.49962">
        <ele>546</ele>
        <time>2013-06-18T17:06:04Z</time>
      </trkpt>
      <trkpt lat="44.34129" lon="2.49968">
        <ele>546</ele>
        <time>2013-06-18T17:06:08Z</time>
      </trkpt>
      <trkpt lat="44.34133" lon="2.49973">
        <ele>547</ele>
        <time>2013-06-18T17:06:12Z</time>
      </trkpt>
      <trkpt lat="44.34136" lon="2.49978">
        <ele>547</ele>
        <time>2013-06-18T17:06:15Z</time>
      </trkpt>
      <trkpt lat="44.34139" lon="2.49984">
        <ele>548</ele>
        <time>2013-06-18T17:06:21Z</time>
      </trkpt>
      <trkpt lat="44.34143" lon="2.4999">
        <ele>548</ele>
        <time>2013-06-18T17:06:24Z</time>
      </trkpt>
      <trkpt lat="44.34147" lon="2.49995">
        <ele>550</ele>
        <time>2013-06-18T17:06:27Z</time>
      </trkpt>
      <trkpt lat="44.34151" lon="2.49999">
        <ele>550</ele>
        <time>2013-06-18T17:06:31Z</time>
      </trkpt>
      <trkpt lat="44.34155" lon="2.50005">
        <ele>549</ele>
        <time>2013-06-18T17:06:37Z</time>
      </trkpt>
      <trkpt lat="44.34161" lon="2.50013">
        <ele>549</ele>
        <time>2013-06-18T17:06:44Z</time>
      </trkpt>
      <trkpt lat="44.34167" lon="2.50021">
        <ele>550</ele>
        <time>2013-06-18T17:06:50Z</time>
      </trkpt>
      <trkpt lat="44.34185" lon="2.50035">
        <ele>560</ele>
        <time>2013-06-18T17:07:05Z</time>
      </trkpt>
      <trkpt lat="44.34193" lon="2.50042">
        <ele>559</ele>
        <time>2013-06-18T17:07:13Z</time>
      </trkpt>
      <trkpt lat="44.34198" lon="2.50044">
        <ele>558</ele>
        <time>2013-06-18T17:07:19Z</time>
      </trkpt>
      <trkpt lat="44.34203" lon="2.50044">
        <ele>559</ele>
        <time>2013-06-18T17:07:23Z</time>
      </trkpt>
      <trkpt lat="44.34209" lon="2.50046">
        <ele>561</ele>
        <time>2013-06-18T17:07:27Z</time>
      </trkpt>
      <trkpt lat="44.34216" lon="2.50053">
        <ele>561</ele>
        <time>2013-06-18T17:07:34Z</time>
      </trkpt>
      <trkpt lat="44.3422" lon="2.50056">
        <ele>561</ele>
        <time>2013-06-18T17:07:37Z</time>
      </trkpt>
      <trkpt lat="44.34224" lon="2.5006">
        <ele>561</ele>
        <time>2013-06-18T17:07:41Z</time>
      </trkpt>
      <trkpt lat="44.34227" lon="2.50066">
        <ele>562</ele>
        <time>2013-06-18T17:07:46Z</time>
      </trkpt>
      <trkpt lat="44.3423" lon="2.50071">
        <ele>562</ele>
        <time>2013-06-18T17:07:50Z</time>
      </trkpt>
      <trkpt lat="44.34232" lon="2.50078">
        <ele>561</ele>
        <time>2013-06-18T17:07:55Z</time>
      </trkpt>
      <trkpt lat="44.34234" lon="2.50085">
        <ele>561</ele>
        <time>2013-06-18T17:07:59Z</time>
      </trkpt>
      <trkpt lat="44.34235" lon="2.50091">
        <ele>561</ele>
        <time>2013-06-18T17:08:03Z</time>
      </trkpt>
      <trkpt lat="44.3424" lon="2.50103">
        <ele>560</ele>
        <time>2013-06-18T17:08:11Z</time>
      </trkpt>
      <trkpt lat="44.34243" lon="2.50114">
        <ele>562</ele>
        <time>2013-06-18T17:08:17Z</time>
      </trkpt>
      <trkpt lat="44.34242" lon="2.50122">
        <ele>565</ele>
        <time>2013-06-18T17:08:22Z</time>
      </trkpt>
      <trkpt lat="44.34241" lon="2.50137">
        <ele>568</ele>
        <time>2013-06-18T17:08:36Z</time>
      </trkpt>
      <trkpt lat="44.34244" lon="2.5016">
        <ele>577</ele>
        <time>2013-06-18T17:08:50Z</time>
      </trkpt>
      <trkpt lat="44.34248" lon="2.5017">
        <ele>579</ele>
        <time>2013-06-18T17:08:57Z</time>
      </trkpt>
      <trkpt lat="44.34251" lon="2.5018">
        <ele>579</ele>
        <time>2013-06-18T17:09:01Z</time>
      </trkpt>
      <trkpt lat="44.34253" lon="2.50188">
        <ele>580</ele>
        <time>2013-06-18T17:09:06Z</time>
      </trkpt>
      <trkpt lat="44.34256" lon="2.50195">
        <ele>580</ele>
        <time>2013-06-18T17:09:08Z</time>
      </trkpt>
      <trkpt lat="44.3426" lon="2.50201">
        <ele>580</ele>
        <time>2013-06-18T17:09:10Z</time>
      </trkpt>
      <trkpt lat="44.34262" lon="2.50207">
        <ele>579</ele>
        <time>2013-06-18T17:09:14Z</time>
      </trkpt>
      <trkpt lat="44.34265" lon="2.50214">
        <ele>578</ele>
        <time>2013-06-18T17:09:20Z</time>
      </trkpt>
      <trkpt lat="44.34266" lon="2.5022">
        <ele>577</ele>
        <time>2013-06-18T17:09:26Z</time>
      </trkpt>
      <trkpt lat="44.3427" lon="2.50226">
        <ele>577</ele>
        <time>2013-06-18T17:09:30Z</time>
      </trkpt>
      <trkpt lat="44.34272" lon="2.50233">
        <ele>576</ele>
        <time>2013-06-18T17:09:35Z</time>
      </trkpt>
      <trkpt lat="44.34276" lon="2.50238">
        <ele>576</ele>
        <time>2013-06-18T17:09:40Z</time>
      </trkpt>
      <trkpt lat="44.34279" lon="2.50244">
        <ele>576</ele>
        <time>2013-06-18T17:09:43Z</time>
      </trkpt>
      <trkpt lat="44.34283" lon="2.50248">
        <ele>576</ele>
        <time>2013-06-18T17:09:45Z</time>
      </trkpt>
      <trkpt lat="44.34285" lon="2.50256">
        <ele>577</ele>
        <time>2013-06-18T17:09:52Z</time>
      </trkpt>
      <trkpt lat="44.34287" lon="2.50263">
        <ele>577</ele>
        <time>2013-06-18T17:09:56Z</time>
      </trkpt>
      <trkpt lat="44.3429" lon="2.50268">
        <ele>578</ele>
        <time>2013-06-18T17:10:02Z</time>
      </trkpt>
      <trkpt lat="44.34296" lon="2.50282">
        <ele>579</ele>
        <time>2013-06-18T17:10:09Z</time>
      </trkpt>
      <trkpt lat="44.34301" lon="2.50294">
        <ele>584</ele>
        <time>2013-06-18T17:10:21Z</time>
      </trkpt>
      <trkpt lat="44.34303" lon="2.50301">
        <ele>585</ele>
        <time>2013-06-18T17:10:26Z</time>
      </trkpt>
      <trkpt lat="44.34304" lon="2.50307">
        <ele>586</ele>
        <time>2013-06-18T17:10:30Z</time>
      </trkpt>
      <trkpt lat="44.34307" lon="2.50313">
        <ele>588</ele>
        <time>2013-06-18T17:10:34Z</time>
      </trkpt>
      <trkpt lat="44.34309" lon="2.50319">
        <ele>589</ele>
        <time>2013-06-18T17:10:39Z</time>
      </trkpt>
      <trkpt lat="44.34311" lon="2.50325">
        <ele>588</ele>
        <time>2013-06-18T17:10:45Z</time>
      </trkpt>
      <trkpt lat="44.34317" lon="2.50335">
        <ele>588</ele>
        <time>2013-06-18T17:10:50Z</time>
      </trkpt>
      <trkpt lat="44.3432" lon="2.50345">
        <ele>585</ele>
        <time>2013-06-18T17:10:57Z</time>
      </trkpt>
      <trkpt lat="44.34324" lon="2.50354">
        <ele>582</ele>
        <time>2013-06-18T17:11:06Z</time>
      </trkpt>
      <trkpt lat="44.34332" lon="2.50362">
        <ele>576</ele>
        <time>2013-06-18T17:11:20Z</time>
      </trkpt>
      <trkpt lat="44.34336" lon="2.50368">
        <ele>576</ele>
        <time>2013-06-18T17:11:24Z</time>
      </trkpt>
      <trkpt lat="44.34339" lon="2.50375">
        <ele>576</ele>
        <time>2013-06-18T17:11:30Z</time>
      </trkpt>
      <trkpt lat="44.34343" lon="2.50387">
        <ele>577</ele>
        <time>2013-06-18T17:11:36Z</time>
      </trkpt>
      <trkpt lat="44.34347" lon="2.50398">
        <ele>580</ele>
        <time>2013-06-18T17:11:42Z</time>
      </trkpt>
      <trkpt lat="44.34359" lon="2.50469">
        <ele>609</ele>
        <time>2013-06-18T17:12:15Z</time>
      </trkpt>
      <trkpt lat="44.34358" lon="2.50482">
        <ele>611</ele>
        <time>2013-06-18T17:12:21Z</time>
      </trkpt>
      <trkpt lat="44.34356" lon="2.50495">
        <ele>610</ele>
        <time>2013-06-18T17:12:28Z</time>
      </trkpt>
      <trkpt lat="44.34353" lon="2.50508">
        <ele>607</ele>
        <time>2013-06-18T17:12:38Z</time>
      </trkpt>
      <trkpt lat="44.34352" lon="2.50514">
        <ele>606</ele>
        <time>2013-06-18T17:12:41Z</time>
      </trkpt>
      <trkpt lat="44.34351" lon="2.50521">
        <ele>604</ele>
        <time>2013-06-18T17:12:44Z</time>
      </trkpt>
      <trkpt lat="44.3435" lon="2.50529">
        <ele>603</ele>
        <time>2013-06-18T17:12:48Z</time>
      </trkpt>
      <trkpt lat="44.34349" lon="2.50536">
        <ele>602</ele>
        <time>2013-06-18T17:12:52Z</time>
      </trkpt>
      <trkpt lat="44.34351" lon="2.5055">
        <ele>604</ele>
        <time>2013-06-18T17:12:58Z</time>
      </trkpt>
      <trkpt lat="44.34351" lon="2.50557">
        <ele>605</ele>
        <time>2013-06-18T17:13:02Z</time>
      </trkpt>
      <trkpt lat="44.34351" lon="2.50564">
        <ele>606</ele>
        <time>2013-06-18T17:13:05Z</time>
      </trkpt>
      <trkpt lat="44.34352" lon="2.50568">
        <ele>609</ele>
        <time>2013-06-18T17:13:12Z</time>
      </trkpt>
      <trkpt lat="44.34351" lon="2.50575">
        <ele>606</ele>
        <time>2013-06-18T17:14:04Z</time>
      </trkpt>
      <trkpt lat="44.3435" lon="2.50584">
        <ele>604</ele>
        <time>2013-06-18T17:14:08Z</time>
      </trkpt>
      <trkpt lat="44.3435" lon="2.5059">
        <ele>603</ele>
        <time>2013-06-18T17:14:11Z</time>
      </trkpt>
      <trkpt lat="44.34348" lon="2.50603">
        <ele>599</ele>
        <time>2013-06-18T17:14:19Z</time>
      </trkpt>
      <trkpt lat="44.34349" lon="2.50615">
        <ele>599</ele>
        <time>2013-06-18T17:14:29Z</time>
      </trkpt>
      <trkpt lat="44.34349" lon="2.50627">
        <ele>602</ele>
        <time>2013-06-18T17:14:37Z</time>
      </trkpt>
      <trkpt lat="44.3435" lon="2.50636">
        <ele>603</ele>
        <time>2013-06-18T17:14:40Z</time>
      </trkpt>
      <trkpt lat="44.3435" lon="2.50644">
        <ele>602</ele>
        <time>2013-06-18T17:14:43Z</time>
      </trkpt>
      <trkpt lat="44.3435" lon="2.50651">
        <ele>603</ele>
        <time>2013-06-18T17:14:47Z</time>
      </trkpt>
      <trkpt lat="44.3435" lon="2.50657">
        <ele>603</ele>
        <time>2013-06-18T17:14:50Z</time>
      </trkpt>
      <trkpt lat="44.34351" lon="2.50665">
        <ele>603</ele>
        <time>2013-06-18T17:14:53Z</time>
      </trkpt>
      <trkpt lat="44.34351" lon="2.50674">
        <ele>602</ele>
        <time>2013-06-18T17:14:59Z</time>
      </trkpt>
      <trkpt lat="44.34352" lon="2.50681">
        <ele>602</ele>
        <time>2013-06-18T17:15:02Z</time>
      </trkpt>
      <trkpt lat="44.34353" lon="2.50688">
        <ele>603</ele>
        <time>2013-06-18T17:15:06Z</time>
      </trkpt>
      <trkpt lat="44.34352" lon="2.50695">
        <ele>603</ele>
        <time>2013-06-18T17:15:09Z</time>
      </trkpt>
      <trkpt lat="44.34351" lon="2.50703">
        <ele>602</ele>
        <time>2013-06-18T17:15:13Z</time>
      </trkpt>
      <trkpt lat="44.34351" lon="2.5071">
        <ele>601</ele>
        <time>2013-06-18T17:15:17Z</time>
      </trkpt>
      <trkpt lat="44.3435" lon="2.50719">
        <ele>600</ele>
        <time>2013-06-18T17:15:21Z</time>
      </trkpt>
      <trkpt lat="44.34349" lon="2.50725">
        <ele>599</ele>
        <time>2013-06-18T17:15:26Z</time>
      </trkpt>
      <trkpt lat="44.34348" lon="2.50739">
        <ele>600</ele>
        <time>2013-06-18T17:15:36Z</time>
      </trkpt>
      <trkpt lat="44.34347" lon="2.50746">
        <ele>602</ele>
        <time>2013-06-18T17:15:41Z</time>
      </trkpt>
      <trkpt lat="44.34346" lon="2.50752">
        <ele>604</ele>
        <time>2013-06-18T17:15:46Z</time>
      </trkpt>
      <trkpt lat="44.34345" lon="2.50758">
        <ele>605</ele>
        <time>2013-06-18T17:15:51Z</time>
      </trkpt>
      <trkpt lat="44.34344" lon="2.50766">
        <ele>605</ele>
        <time>2013-06-18T17:15:55Z</time>
      </trkpt>
      <trkpt lat="44.34343" lon="2.50773">
        <ele>607</ele>
        <time>2013-06-18T17:15:59Z</time>
      </trkpt>
      <trkpt lat="44.34345" lon="2.5078">
        <ele>609</ele>
        <time>2013-06-18T17:16:03Z</time>
      </trkpt>
      <trkpt lat="44.34345" lon="2.50788">
        <ele>611</ele>
        <time>2013-06-18T17:16:06Z</time>
      </trkpt>
      <trkpt lat="44.34347" lon="2.50795">
        <ele>612</ele>
        <time>2013-06-18T17:16:10Z</time>
      </trkpt>
      <trkpt lat="44.34348" lon="2.50801">
        <ele>613</ele>
        <time>2013-06-18T17:16:15Z</time>
      </trkpt>
      <trkpt lat="44.34349" lon="2.50814">
        <ele>613</ele>
        <time>2013-06-18T17:16:21Z</time>
      </trkpt>
      <trkpt lat="44.3435" lon="2.50821">
        <ele>614</ele>
        <time>2013-06-18T17:16:25Z</time>
      </trkpt>
      <trkpt lat="44.34351" lon="2.50828">
        <ele>614</ele>
        <time>2013-06-18T17:16:29Z</time>
      </trkpt>
      <trkpt lat="44.34353" lon="2.50834">
        <ele>615</ele>
        <time>2013-06-18T17:16:33Z</time>
      </trkpt>
      <trkpt lat="44.34355" lon="2.50841">
        <ele>617</ele>
        <time>2013-06-18T17:16:37Z</time>
      </trkpt>
      <trkpt lat="44.34358" lon="2.50846">
        <ele>619</ele>
        <time>2013-06-18T17:16:41Z</time>
      </trkpt>
      <trkpt lat="44.3436" lon="2.50852">
        <ele>621</ele>
        <time>2013-06-18T17:16:45Z</time>
      </trkpt>
      <trkpt lat="44.34363" lon="2.50858">
        <ele>621</ele>
        <time>2013-06-18T17:16:49Z</time>
      </trkpt>
      <trkpt lat="44.34366" lon="2.50864">
        <ele>620</ele>
        <time>2013-06-18T17:16:52Z</time>
      </trkpt>
      <trkpt lat="44.34367" lon="2.5087">
        <ele>620</ele>
        <time>2013-06-18T17:16:56Z</time>
      </trkpt>
      <trkpt lat="44.34369" lon="2.50878">
        <ele>618</ele>
        <time>2013-06-18T17:17:01Z</time>
      </trkpt>
      <trkpt lat="44.34371" lon="2.50883">
        <ele>618</ele>
        <time>2013-06-18T17:17:05Z</time>
      </trkpt>
      <trkpt lat="44.34374" lon="2.50889">
        <ele>618</ele>
        <time>2013-06-18T17:17:09Z</time>
      </trkpt>
      <trkpt lat="44.34377" lon="2.50895">
        <ele>618</ele>
        <time>2013-06-18T17:17:13Z</time>
      </trkpt>
      <trkpt lat="44.3438" lon="2.509">
        <ele>618</ele>
        <time>2013-06-18T17:17:18Z</time>
      </trkpt>
      <trkpt lat="44.34384" lon="2.50907">
        <ele>620</ele>
        <time>2013-06-18T17:17:22Z</time>
      </trkpt>
      <trkpt lat="44.34387" lon="2.50914">
        <ele>622</ele>
        <time>2013-06-18T17:17:29Z</time>
      </trkpt>
      <trkpt lat="44.34389" lon="2.50922">
        <ele>621</ele>
        <time>2013-06-18T17:17:34Z</time>
      </trkpt>
      <trkpt lat="44.34392" lon="2.5093">
        <ele>621</ele>
        <time>2013-06-18T17:17:39Z</time>
      </trkpt>
      <trkpt lat="44.34394" lon="2.50937">
        <ele>620</ele>
        <time>2013-06-18T17:17:46Z</time>
      </trkpt>
      <trkpt lat="44.34397" lon="2.50943">
        <ele>620</ele>
        <time>2013-06-18T17:17:50Z</time>
      </trkpt>
      <trkpt lat="44.344" lon="2.50949">
        <ele>621</ele>
        <time>2013-06-18T17:17:54Z</time>
      </trkpt>
      <trkpt lat="44.34402" lon="2.50955">
        <ele>621</ele>
        <time>2013-06-18T17:17:57Z</time>
      </trkpt>
      <trkpt lat="44.34405" lon="2.5096">
        <ele>621</ele>
        <time>2013-06-18T17:18:00Z</time>
      </trkpt>
      <trkpt lat="44.34408" lon="2.50965">
        <ele>620</ele>
        <time>2013-06-18T17:18:03Z</time>
      </trkpt>
      <trkpt lat="44.34411" lon="2.5097">
        <ele>621</ele>
        <time>2013-06-18T17:18:07Z</time>
      </trkpt>
      <trkpt lat="44.34413" lon="2.50976">
        <ele>621</ele>
        <time>2013-06-18T17:18:11Z</time>
      </trkpt>
      <trkpt lat="44.34417" lon="2.50985">
        <ele>621</ele>
        <time>2013-06-18T17:18:16Z</time>
      </trkpt>
      <trkpt lat="44.3442" lon="2.5099">
        <ele>621</ele>
        <time>2013-06-18T17:18:20Z</time>
      </trkpt>
      <trkpt lat="44.34423" lon="2.50996">
        <ele>621</ele>
        <time>2013-06-18T17:18:24Z</time>
      </trkpt>
      <trkpt lat="44.34425" lon="2.51003">
        <ele>621</ele>
        <time>2013-06-18T17:18:27Z</time>
      </trkpt>
      <trkpt lat="44.34427" lon="2.5101">
        <ele>620</ele>
        <time>2013-06-18T17:18:30Z</time>
      </trkpt>
      <trkpt lat="44.3443" lon="2.51016">
        <ele>619</ele>
        <time>2013-06-18T17:18:33Z</time>
      </trkpt>
      <trkpt lat="44.34431" lon="2.51023">
        <ele>617</ele>
        <time>2013-06-18T17:18:37Z</time>
      </trkpt>
      <trkpt lat="44.34432" lon="2.5103">
        <ele>615</ele>
        <time>2013-06-18T17:18:43Z</time>
      </trkpt>
      <trkpt lat="44.34433" lon="2.51036">
        <ele>614</ele>
        <time>2013-06-18T17:18:46Z</time>
      </trkpt>
      <trkpt lat="44.34435" lon="2.51042">
        <ele>615</ele>
        <time>2013-06-18T17:18:50Z</time>
      </trkpt>
      <trkpt lat="44.34436" lon="2.51048">
        <ele>616</ele>
        <time>2013-06-18T17:18:53Z</time>
      </trkpt>
      <trkpt lat="44.34438" lon="2.51055">
        <ele>617</ele>
        <time>2013-06-18T17:18:57Z</time>
      </trkpt>
      <trkpt lat="44.34441" lon="2.51061">
        <ele>619</ele>
        <time>2013-06-18T17:19:01Z</time>
      </trkpt>
      <trkpt lat="44.34442" lon="2.51069">
        <ele>621</ele>
        <time>2013-06-18T17:19:05Z</time>
      </trkpt>
      <trkpt lat="44.34443" lon="2.51075">
        <ele>621</ele>
        <time>2013-06-18T17:19:08Z</time>
      </trkpt>
      <trkpt lat="44.34444" lon="2.51084">
        <ele>621</ele>
        <time>2013-06-18T17:19:11Z</time>
      </trkpt>
      <trkpt lat="44.34446" lon="2.51091">
        <ele>620</ele>
        <time>2013-06-18T17:19:13Z</time>
      </trkpt>
      <trkpt lat="44.34447" lon="2.51097">
        <ele>618</ele>
        <time>2013-06-18T17:19:16Z</time>
      </trkpt>
      <trkpt lat="44.34449" lon="2.51106">
        <ele>617</ele>
        <time>2013-06-18T17:19:22Z</time>
      </trkpt>
      <trkpt lat="44.34451" lon="2.51113">
        <ele>617</ele>
        <time>2013-06-18T17:19:26Z</time>
      </trkpt>
      <trkpt lat="44.34453" lon="2.51122">
        <ele>617</ele>
        <time>2013-06-18T17:19:34Z</time>
      </trkpt>
      <trkpt lat="44.34454" lon="2.5113">
        <ele>617</ele>
        <time>2013-06-18T17:19:38Z</time>
      </trkpt>
      <trkpt lat="44.34454" lon="2.51138">
        <ele>616</ele>
        <time>2013-06-18T17:19:41Z</time>
      </trkpt>
      <trkpt lat="44.34455" lon="2.51146">
        <ele>616</ele>
        <time>2013-06-18T17:19:45Z</time>
      </trkpt>
      <trkpt lat="44.34455" lon="2.51152">
        <ele>616</ele>
        <time>2013-06-18T17:19:48Z</time>
      </trkpt>
      <trkpt lat="44.34456" lon="2.51159">
        <ele>616</ele>
        <time>2013-06-18T17:19:52Z</time>
      </trkpt>
      <trkpt lat="44.34456" lon="2.51167">
        <ele>616</ele>
        <time>2013-06-18T17:19:56Z</time>
      </trkpt>
      <trkpt lat="44.34457" lon="2.51175">
        <ele>616</ele>
        <time>2013-06-18T17:20:00Z</time>
      </trkpt>
      <trkpt lat="44.34458" lon="2.51182">
        <ele>616</ele>
        <time>2013-06-18T17:20:04Z</time>
      </trkpt>
      <trkpt lat="44.34459" lon="2.51189">
        <ele>616</ele>
        <time>2013-06-18T17:20:08Z</time>
      </trkpt>
      <trkpt lat="44.3446" lon="2.51196">
        <ele>616</ele>
        <time>2013-06-18T17:20:12Z</time>
      </trkpt>
      <trkpt lat="44.3446" lon="2.51203">
        <ele>617</ele>
        <time>2013-06-18T17:20:16Z</time>
      </trkpt>
      <trkpt lat="44.34461" lon="2.5121">
        <ele>616</ele>
        <time>2013-06-18T17:20:20Z</time>
      </trkpt>
      <trkpt lat="44.34463" lon="2.51218">
        <ele>616</ele>
        <time>2013-06-18T17:20:23Z</time>
      </trkpt>
      <trkpt lat="44.34466" lon="2.51232">
        <ele>616</ele>
        <time>2013-06-18T17:20:27Z</time>
      </trkpt>
      <trkpt lat="44.34468" lon="2.51245">
        <ele>614</ele>
        <time>2013-06-18T17:20:32Z</time>
      </trkpt>
      <trkpt lat="44.34469" lon="2.51256">
        <ele>613</ele>
        <time>2013-06-18T17:20:36Z</time>
      </trkpt>
      <trkpt lat="44.3447" lon="2.51263">
        <ele>612</ele>
        <time>2013-06-18T17:20:39Z</time>
      </trkpt>
      <trkpt lat="44.34472" lon="2.5127">
        <ele>612</ele>
        <time>2013-06-18T17:20:42Z</time>
      </trkpt>
      <trkpt lat="44.34473" lon="2.51277">
        <ele>613</ele>
        <time>2013-06-18T17:20:46Z</time>
      </trkpt>
      <trkpt lat="44.34475" lon="2.51284">
        <ele>613</ele>
        <time>2013-06-18T17:20:50Z</time>
      </trkpt>
      <trkpt lat="44.34477" lon="2.51291">
        <ele>613</ele>
        <time>2013-06-18T17:20:54Z</time>
      </trkpt>
      <trkpt lat="44.34478" lon="2.51297">
        <ele>613</ele>
        <time>2013-06-18T17:20:57Z</time>
      </trkpt>
      <trkpt lat="44.3448" lon="2.51303">
        <ele>613</ele>
        <time>2013-06-18T17:21:00Z</time>
      </trkpt>
      <trkpt lat="44.34481" lon="2.5131">
        <ele>613</ele>
        <time>2013-06-18T17:21:04Z</time>
      </trkpt>
      <trkpt lat="44.34483" lon="2.51316">
        <ele>613</ele>
        <time>2013-06-18T17:21:08Z</time>
      </trkpt>
      <trkpt lat="44.34484" lon="2.51323">
        <ele>612</ele>
        <time>2013-06-18T17:21:12Z</time>
      </trkpt>
      <trkpt lat="44.34486" lon="2.51329">
        <ele>612</ele>
        <time>2013-06-18T17:21:16Z</time>
      </trkpt>
      <trkpt lat="44.34488" lon="2.51337">
        <ele>614</ele>
        <time>2013-06-18T17:21:20Z</time>
      </trkpt>
      <trkpt lat="44.3449" lon="2.51344">
        <ele>614</ele>
        <time>2013-06-18T17:21:24Z</time>
      </trkpt>
      <trkpt lat="44.34492" lon="2.51349">
        <ele>613</ele>
        <time>2013-06-18T17:21:27Z</time>
      </trkpt>
      <trkpt lat="44.34494" lon="2.51357">
        <ele>613</ele>
        <time>2013-06-18T17:21:31Z</time>
      </trkpt>
      <trkpt lat="44.34497" lon="2.51363">
        <ele>612</ele>
        <time>2013-06-18T17:21:35Z</time>
      </trkpt>
      <trkpt lat="44.34499" lon="2.51368">
        <ele>612</ele>
        <time>2013-06-18T17:21:40Z</time>
      </trkpt>
      <trkpt lat="44.345" lon="2.51375">
        <ele>612</ele>
        <time>2013-06-18T17:21:45Z</time>
      </trkpt>
      <trkpt lat="44.34503" lon="2.51381">
        <ele>612</ele>
        <time>2013-06-18T17:21:50Z</time>
      </trkpt>
      <trkpt lat="44.34505" lon="2.51387">
        <ele>613</ele>
        <time>2013-06-18T17:21:54Z</time>
      </trkpt>
      <trkpt lat="44.34507" lon="2.51393">
        <ele>614</ele>
        <time>2013-06-18T17:21:57Z</time>
      </trkpt>
      <trkpt lat="44.34509" lon="2.51408">
        <ele>613</ele>
        <time>2013-06-18T17:22:05Z</time>
      </trkpt>
      <trkpt lat="44.34511" lon="2.5142">
        <ele>614</ele>
        <time>2013-06-18T17:22:10Z</time>
      </trkpt>
      <trkpt lat="44.34513" lon="2.51426">
        <ele>615</ele>
        <time>2013-06-18T17:22:13Z</time>
      </trkpt>
      <trkpt lat="44.34514" lon="2.51434">
        <ele>615</ele>
        <time>2013-06-18T17:22:16Z</time>
      </trkpt>
      <trkpt lat="44.34517" lon="2.5144">
        <ele>615</ele>
        <time>2013-06-18T17:22:19Z</time>
      </trkpt>
      <trkpt lat="44.34519" lon="2.51448">
        <ele>615</ele>
        <time>2013-06-18T17:22:23Z</time>
      </trkpt>
      <trkpt lat="44.34521" lon="2.51454">
        <ele>615</ele>
        <time>2013-06-18T17:22:26Z</time>
      </trkpt>
      <trkpt lat="44.34522" lon="2.51461">
        <ele>614</ele>
        <time>2013-06-18T17:22:30Z</time>
      </trkpt>
      <trkpt lat="44.34524" lon="2.5147">
        <ele>613</ele>
        <time>2013-06-18T17:22:35Z</time>
      </trkpt>
      <trkpt lat="44.34525" lon="2.51479">
        <ele>614</ele>
        <time>2013-06-18T17:22:39Z</time>
      </trkpt>
      <trkpt lat="44.34527" lon="2.51493">
        <ele>615</ele>
        <time>2013-06-18T17:22:48Z</time>
      </trkpt>
      <trkpt lat="44.34527" lon="2.51499">
        <ele>614</ele>
        <time>2013-06-18T17:22:52Z</time>
      </trkpt>
      <trkpt lat="44.34528" lon="2.51506">
        <ele>615</ele>
        <time>2013-06-18T17:22:55Z</time>
      </trkpt>
      <trkpt lat="44.3453" lon="2.51513">
        <ele>614</ele>
        <time>2013-06-18T17:22:58Z</time>
      </trkpt>
      <trkpt lat="44.34531" lon="2.51519">
        <ele>614</ele>
        <time>2013-06-18T17:23:02Z</time>
      </trkpt>
      <trkpt lat="44.34532" lon="2.51526">
        <ele>613</ele>
        <time>2013-06-18T17:23:04Z</time>
      </trkpt>
      <trkpt lat="44.34533" lon="2.51534">
        <ele>613</ele>
        <time>2013-06-18T17:23:08Z</time>
      </trkpt>
      <trkpt lat="44.34533" lon="2.51542">
        <ele>613</ele>
        <time>2013-06-18T17:23:12Z</time>
      </trkpt>
      <trkpt lat="44.34535" lon="2.51549">
        <ele>612</ele>
        <time>2013-06-18T17:23:16Z</time>
      </trkpt>
      <trkpt lat="44.34536" lon="2.51556">
        <ele>611</ele>
        <time>2013-06-18T17:23:20Z</time>
      </trkpt>
      <trkpt lat="44.34537" lon="2.51564">
        <ele>610</ele>
        <time>2013-06-18T17:23:24Z</time>
      </trkpt>
      <trkpt lat="44.34538" lon="2.51571">
        <ele>610</ele>
        <time>2013-06-18T17:23:27Z</time>
      </trkpt>
      <trkpt lat="44.34539" lon="2.51579">
        <ele>610</ele>
        <time>2013-06-18T17:23:30Z</time>
      </trkpt>
      <trkpt lat="44.3454" lon="2.51586">
        <ele>610</ele>
        <time>2013-06-18T17:23:33Z</time>
      </trkpt>
      <trkpt lat="44.34541" lon="2.51593">
        <ele>611</ele>
        <time>2013-06-18T17:23:37Z</time>
      </trkpt>
      <trkpt lat="44.34542" lon="2.51599">
        <ele>612</ele>
        <time>2013-06-18T17:23:40Z</time>
      </trkpt>
      <trkpt lat="44.34543" lon="2.51606">
        <ele>612</ele>
        <time>2013-06-18T17:23:43Z</time>
      </trkpt>
      <trkpt lat="44.34544" lon="2.51612">
        <ele>612</ele>
        <time>2013-06-18T17:23:46Z</time>
      </trkpt>
      <trkpt lat="44.34546" lon="2.51618">
        <ele>612</ele>
        <time>2013-06-18T17:23:49Z</time>
      </trkpt>
      <trkpt lat="44.34547" lon="2.51626">
        <ele>611</ele>
        <time>2013-06-18T17:23:53Z</time>
      </trkpt>
      <trkpt lat="44.34551" lon="2.51638">
        <ele>610</ele>
        <time>2013-06-18T17:24:00Z</time>
      </trkpt>
      <trkpt lat="44.3455" lon="2.51644">
        <ele>610</ele>
        <time>2013-06-18T17:24:04Z</time>
      </trkpt>
      <trkpt lat="44.34547" lon="2.51656">
        <ele>612</ele>
        <time>2013-06-18T17:24:27Z</time>
      </trkpt>
      <trkpt lat="44.3454" lon="2.51665">
        <ele>612</ele>
        <time>2013-06-18T17:24:33Z</time>
      </trkpt>
      <trkpt lat="44.34532" lon="2.51673">
        <ele>612</ele>
        <time>2013-06-18T17:24:41Z</time>
      </trkpt>
      <trkpt lat="44.34528" lon="2.51679">
        <ele>611</ele>
        <time>2013-06-18T17:24:45Z</time>
      </trkpt>
      <trkpt lat="44.3452" lon="2.51687">
        <ele>610</ele>
        <time>2013-06-18T17:24:52Z</time>
      </trkpt>
      <trkpt lat="44.34518" lon="2.51693">
        <ele>610</ele>
        <time>2013-06-18T17:24:56Z</time>
      </trkpt>
      <trkpt lat="44.34514" lon="2.51698">
        <ele>610</ele>
        <time>2013-06-18T17:25:01Z</time>
      </trkpt>
      <trkpt lat="44.34506" lon="2.51707">
        <ele>610</ele>
        <time>2013-06-18T17:25:07Z</time>
      </trkpt>
      <trkpt lat="44.34499" lon="2.51726">
        <ele>609</ele>
        <time>2013-06-18T17:25:28Z</time>
      </trkpt>
      <trkpt lat="44.34494" lon="2.51737">
        <ele>611</ele>
        <time>2013-06-18T17:25:31Z</time>
      </trkpt>
      <trkpt lat="44.34486" lon="2.51747">
        <ele>614</ele>
        <time>2013-06-18T17:25:36Z</time>
      </trkpt>
      <trkpt lat="44.34479" lon="2.51756">
        <ele>614</ele>
        <time>2013-06-18T17:25:41Z</time>
      </trkpt>
      <trkpt lat="44.34473" lon="2.51762">
        <ele>614</ele>
        <time>2013-06-18T17:25:46Z</time>
      </trkpt>
      <trkpt lat="44.34467" lon="2.51771">
        <ele>616</ele>
        <time>2013-06-18T17:25:53Z</time>
      </trkpt>
      <trkpt lat="44.3446" lon="2.51779">
        <ele>616</ele>
        <time>2013-06-18T17:25:58Z</time>
      </trkpt>
      <trkpt lat="44.34453" lon="2.51789">
        <ele>614</ele>
        <time>2013-06-18T17:26:05Z</time>
      </trkpt>
      <trkpt lat="44.34448" lon="2.51796">
        <ele>615</ele>
        <time>2013-06-18T17:26:09Z</time>
      </trkpt>
      <trkpt lat="44.3444" lon="2.51806">
        <ele>614</ele>
        <time>2013-06-18T17:26:19Z</time>
      </trkpt>
      <trkpt lat="44.34429" lon="2.51811">
        <ele>614</ele>
        <time>2013-06-18T17:26:27Z</time>
      </trkpt>
      <trkpt lat="44.34425" lon="2.51816">
        <ele>614</ele>
        <time>2013-06-18T17:26:31Z</time>
      </trkpt>
      <trkpt lat="44.34418" lon="2.51826">
        <ele>614</ele>
        <time>2013-06-18T17:26:40Z</time>
      </trkpt>
      <trkpt lat="44.34413" lon="2.51835">
        <ele>613</ele>
        <time>2013-06-18T17:26:46Z</time>
      </trkpt>
      <trkpt lat="44.34403" lon="2.51843">
        <ele>616</ele>
        <time>2013-06-18T17:27:02Z</time>
      </trkpt>
      <trkpt lat="44.344" lon="2.51848">
        <ele>614</ele>
        <time>2013-06-18T17:27:06Z</time>
      </trkpt>
      <trkpt lat="44.34395" lon="2.51851">
        <ele>614</ele>
        <time>2013-06-18T17:27:10Z</time>
      </trkpt>
      <trkpt lat="44.3439" lon="2.51855">
        <ele>614</ele>
        <time>2013-06-18T17:27:14Z</time>
      </trkpt>
      <trkpt lat="44.34385" lon="2.51857">
        <ele>614</ele>
        <time>2013-06-18T17:27:18Z</time>
      </trkpt>
      <trkpt lat="44.34381" lon="2.51859">
        <ele>615</ele>
        <time>2013-06-18T17:27:22Z</time>
      </trkpt>
      <trkpt lat="44.34376" lon="2.51862">
        <ele>616</ele>
        <time>2013-06-18T17:27:26Z</time>
      </trkpt>
      <trkpt lat="44.34372" lon="2.51866">
        <ele>616</ele>
        <time>2013-06-18T17:27:30Z</time>
      </trkpt>
      <trkpt lat="44.34364" lon="2.5187">
        <ele>614</ele>
        <time>2013-06-18T17:27:36Z</time>
      </trkpt>
      <trkpt lat="44.34359" lon="2.51875">
        <ele>615</ele>
        <time>2013-06-18T17:27:41Z</time>
      </trkpt>
      <trkpt lat="44.34354" lon="2.51878">
        <ele>615</ele>
        <time>2013-06-18T17:27:46Z</time>
      </trkpt>
      <trkpt lat="44.34348" lon="2.51889">
        <ele>615</ele>
        <time>2013-06-18T17:27:58Z</time>
      </trkpt>
      <trkpt lat="44.34345" lon="2.51902">
        <ele>616</ele>
        <time>2013-06-18T17:28:05Z</time>
      </trkpt>
      <trkpt lat="44.34345" lon="2.51915">
        <ele>617</ele>
        <time>2013-06-18T17:28:10Z</time>
      </trkpt>
      <trkpt lat="44.34346" lon="2.51922">
        <ele>618</ele>
        <time>2013-06-18T17:28:14Z</time>
      </trkpt>
      <trkpt lat="44.34347" lon="2.51928">
        <ele>618</ele>
        <time>2013-06-18T17:28:17Z</time>
      </trkpt>
      <trkpt lat="44.34348" lon="2.51941">
        <ele>620</ele>
        <time>2013-06-18T17:28:24Z</time>
      </trkpt>
      <trkpt lat="44.34348" lon="2.51954">
        <ele>619</ele>
        <time>2013-06-18T17:28:33Z</time>
      </trkpt>
      <trkpt lat="44.34347" lon="2.51968">
        <ele>617</ele>
        <time>2013-06-18T17:28:37Z</time>
      </trkpt>
      <trkpt lat="44.34347" lon="2.51975">
        <ele>617</ele>
        <time>2013-06-18T17:28:41Z</time>
      </trkpt>
      <trkpt lat="44.34348" lon="2.51988">
        <ele>618</ele>
        <time>2013-06-18T17:28:56Z</time>
      </trkpt>
      <trkpt lat="44.34349" lon="2.52">
        <ele>616</ele>
        <time>2013-06-18T17:29:03Z</time>
      </trkpt>
      <trkpt lat="44.3435" lon="2.52007">
        <ele>615</ele>
        <time>2013-06-18T17:29:07Z</time>
      </trkpt>
      <trkpt lat="44.34346" lon="2.52012">
        <ele>614</ele>
        <time>2013-06-18T17:29:11Z</time>
      </trkpt>
      <trkpt lat="44.34338" lon="2.52022">
        <ele>614</ele>
        <time>2013-06-18T17:29:17Z</time>
      </trkpt>
      <trkpt lat="44.34329" lon="2.52023">
        <ele>614</ele>
        <time>2013-06-18T17:29:23Z</time>
      </trkpt>
      <trkpt lat="44.34321" lon="2.5202">
        <ele>614</ele>
        <time>2013-06-18T17:29:28Z</time>
      </trkpt>
      <trkpt lat="44.34315" lon="2.52019">
        <ele>614</ele>
        <time>2013-06-18T17:29:32Z</time>
      </trkpt>
      <trkpt lat="44.34309" lon="2.52015">
        <ele>614</ele>
        <time>2013-06-18T17:29:37Z</time>
      </trkpt>
      <trkpt lat="44.34304" lon="2.52005">
        <ele>614</ele>
        <time>2013-06-18T17:29:44Z</time>
      </trkpt>
      <trkpt lat="44.34302" lon="2.51997">
        <ele>611</ele>
        <time>2013-06-18T17:29:59Z</time>
      </trkpt>
      <trkpt lat="44.34303" lon="2.51993">
        <ele>611</ele>
        <time>2013-06-18T17:30:25Z</time>
      </trkpt>
      <trkpt lat="44.34301" lon="2.51998">
        <ele>614</ele>
        <time>2013-06-18T17:31:40Z</time>
      </trkpt>
      <trkpt lat="44.34305" lon="2.52003">
        <ele>613</ele>
        <time>2013-06-18T17:32:54Z</time>
      </trkpt>
      <trkpt lat="44.34307" lon="2.5201">
        <ele>613</ele>
        <time>2013-06-18T17:32:59Z</time>
      </trkpt>
      <trkpt lat="44.3431" lon="2.52015">
        <ele>613</ele>
        <time>2013-06-18T17:33:03Z</time>
      </trkpt>
      <trkpt lat="44.34314" lon="2.52028">
        <ele>615</ele>
        <time>2013-06-18T17:33:11Z</time>
      </trkpt>
      <trkpt lat="44.34316" lon="2.52036">
        <ele>616</ele>
        <time>2013-06-18T17:33:17Z</time>
      </trkpt>
      <trkpt lat="44.34311" lon="2.52034">
        <ele>615</ele>
        <time>2013-06-18T17:33:23Z</time>
      </trkpt>
      <trkpt lat="44.34308" lon="2.52033">
        <ele>617</ele>
        <time>2013-06-18T17:35:27Z</time>
      </trkpt>
      <trkpt lat="44.34305" lon="2.52033">
        <ele>615</ele>
        <time>2013-06-18T17:36:08Z</time>
      </trkpt>
      <trkpt lat="44.34303" lon="2.5203">
        <ele>615</ele>
        <time>2013-06-18T17:36:14Z</time>
      </trkpt>
      <trkpt lat="44.343" lon="2.52032">
        <ele>613</ele>
        <time>2013-06-18T17:36:38Z</time>
      </trkpt>
      <trkpt lat="44.34299" lon="2.52035">
        <ele>612</ele>
        <time>2013-06-18T17:37:11Z</time>
      </trkpt>
      <trkpt lat="44.34302" lon="2.52039">
        <ele>613</ele>
        <time>2013-06-18T17:37:20Z</time>
      </trkpt>
      <trkpt lat="44.34299" lon="2.52039">
        <ele>611</ele>
        <time>2013-06-18T17:39:37Z</time>
      </trkpt>
      <trkpt lat="44.34301" lon="2.52033">
        <ele>611</ele>
        <time>2013-06-18T17:40:02Z</time>
      </trkpt>
      <trkpt lat="44.34305" lon="2.52037">
        <ele>611</ele>
        <time>2013-06-18T17:40:07Z</time>
      </trkpt>
      <trkpt lat="44.34307" lon="2.52033">
        <ele>610</ele>
        <time>2013-06-18T17:40:28Z</time>
      </trkpt>
      <trkpt lat="44.34317" lon="2.52047">
        <ele>610</ele>
        <time>2013-06-18T17:41:17Z</time>
      </trkpt>
      <trkpt lat="44.34316" lon="2.52041">
        <ele>612</ele>
        <time>2013-06-18T17:41:47Z</time>
      </trkpt>
      <trkpt lat="44.34307" lon="2.52033">
        <ele>614</ele>
        <time>2013-06-18T17:42:10Z</time>
      </trkpt>
      <trkpt lat="44.34305" lon="2.52037">
        <ele>613</ele>
        <time>2013-06-18T17:42:31Z</time>
      </trkpt>
      <trkpt lat="44.3431" lon="2.52032">
        <ele>610</ele>
        <time>2013-06-18T17:43:46Z</time>
      </trkpt>
      <trkpt lat="44.34306" lon="2.52038">
        <ele>611</ele>
        <time>2013-06-18T17:44:48Z</time>
      </trkpt>
      <trkpt lat="44.34305" lon="2.52033">
        <ele>611</ele>
        <time>2013-06-18T17:45:45Z</time>
      </trkpt>
      <trkpt lat="44.34304" lon="2.52033">
        <ele>612</ele>
        <time>2013-06-18T17:47:52Z</time>
      </trkpt>
      <trkpt lat="44.34298" lon="2.52033">
        <ele>611</ele>
        <time>2013-06-18T17:49:42Z</time>
      </trkpt>
      <trkpt lat="44.34295" lon="2.52031">
        <ele>614</ele>
        <time>2013-06-18T17:53:01Z</time>
      </trkpt>
      <trkpt lat="44.34294" lon="2.52035">
        <ele>613</ele>
        <time>2013-06-18T17:56:02Z</time>
      </trkpt>
      <trkpt lat="44.34301" lon="2.52032">
        <ele>616</ele>
        <time>2013-06-18T17:59:57Z</time>
      </trkpt>
      <trkpt lat="44.34306" lon="2.52035">
        <ele>615</ele>
        <time>2013-06-18T18:00:14Z</time>
      </trkpt>
    </trkseg>
  </trk>
</gpx>